<?xml version="1.0" encoding="UTF-8" standalone="no" ?>
<gpx xmlns="http://www.topografix.com/GPX/1/1" xmlns:xsi="http://www.w3.org/2001/XMLSchema-instance" xsi:schemaLocation="http://www.topografix.com/GPX/1/1 http://www.topografix.com/GPX/1/1/gpx.xsd" version="1.1" creator="VisuGPX - https://www.visugpx.com">
  <metadata>
    <name>Col de Furfande, col Garnier, Eygliers</name>
    <desc><![CDATA[Col de Furfande, col Garnier, Gros, Eygliers]]></desc>
  </metadata>
  <trk>
    <name><![CDATA[160816-Furfande]]></name>
    <trkseg>
      <trkpt lat="44.7352" lon="6.71086">
        <ele>2486.202881</ele>
        <time>2016-08-16T07:42:48Z</time>
      </trkpt>
      <trkpt lat="44.73502" lon="6.71078">
        <ele>2487.212891</ele>
        <time>2016-08-16T07:46:11Z</time>
      </trkpt>
      <trkpt lat="44.73491" lon="6.71052">
        <ele>2487.889893</ele>
        <time>2016-08-16T07:46:18Z</time>
      </trkpt>
      <trkpt lat="44.73485" lon="6.71026">
        <ele>2490.296875</ele>
        <time>2016-08-16T07:46:23Z</time>
      </trkpt>
      <trkpt lat="44.73466" lon="6.71018">
        <ele>2487.824951</ele>
        <time>2016-08-16T07:46:29Z</time>
      </trkpt>
      <trkpt lat="44.73445" lon="6.71021">
        <ele>2480.881348</ele>
        <time>2016-08-16T07:47:03Z</time>
      </trkpt>
      <trkpt lat="44.73426" lon="6.71014">
        <ele>2476.110107</ele>
        <time>2016-08-16T07:47:11Z</time>
      </trkpt>
      <trkpt lat="44.73408" lon="6.71001">
        <ele>2473.272949</ele>
        <time>2016-08-16T07:47:18Z</time>
      </trkpt>
      <trkpt lat="44.73392" lon="6.70985">
        <ele>2471.937012</ele>
        <time>2016-08-16T07:47:24Z</time>
      </trkpt>
      <trkpt lat="44.73374" lon="6.70968">
        <ele>2469.769287</ele>
        <time>2016-08-16T07:47:30Z</time>
      </trkpt>
      <trkpt lat="44.73359" lon="6.70949">
        <ele>2468.402588</ele>
        <time>2016-08-16T07:47:34Z</time>
      </trkpt>
      <trkpt lat="44.73346" lon="6.70926">
        <ele>2467.544189</ele>
        <time>2016-08-16T07:47:39Z</time>
      </trkpt>
      <trkpt lat="44.73336" lon="6.70905">
        <ele>2467.496338</ele>
        <time>2016-08-16T07:47:56Z</time>
      </trkpt>
      <trkpt lat="44.73335" lon="6.70877">
        <ele>2472.206299</ele>
        <time>2016-08-16T07:48:02Z</time>
      </trkpt>
      <trkpt lat="44.73324" lon="6.70852">
        <ele>2471.619141</ele>
        <time>2016-08-16T07:48:08Z</time>
      </trkpt>
      <trkpt lat="44.73305" lon="6.70836">
        <ele>2466.842773</ele>
        <time>2016-08-16T07:48:13Z</time>
      </trkpt>
      <trkpt lat="44.73291" lon="6.70817">
        <ele>2463.593018</ele>
        <time>2016-08-16T07:48:17Z</time>
      </trkpt>
      <trkpt lat="44.73276" lon="6.70803">
        <ele>2458.287598</ele>
        <time>2016-08-16T07:48:22Z</time>
      </trkpt>
      <trkpt lat="44.73262" lon="6.70784">
        <ele>2454.06958</ele>
        <time>2016-08-16T07:49:47Z</time>
      </trkpt>
      <trkpt lat="44.73264" lon="6.70755">
        <ele>2455.689697</ele>
        <time>2016-08-16T07:49:55Z</time>
      </trkpt>
      <trkpt lat="44.73271" lon="6.70731">
        <ele>2456.735596</ele>
        <time>2016-08-16T07:50:01Z</time>
      </trkpt>
      <trkpt lat="44.73277" lon="6.70705">
        <ele>2457.34668</ele>
        <time>2016-08-16T07:50:06Z</time>
      </trkpt>
      <trkpt lat="44.73287" lon="6.70679">
        <ele>2458.768066</ele>
        <time>2016-08-16T07:50:11Z</time>
      </trkpt>
      <trkpt lat="44.7328" lon="6.70654">
        <ele>2452.251953</ele>
        <time>2016-08-16T07:50:16Z</time>
      </trkpt>
      <trkpt lat="44.73275" lon="6.70628">
        <ele>2446.691895</ele>
        <time>2016-08-16T07:50:20Z</time>
      </trkpt>
      <trkpt lat="44.73267" lon="6.706">
        <ele>2439.87085</ele>
        <time>2016-08-16T07:50:25Z</time>
      </trkpt>
      <trkpt lat="44.73264" lon="6.70573">
        <ele>2435.23291</ele>
        <time>2016-08-16T07:50:30Z</time>
      </trkpt>
      <trkpt lat="44.73264" lon="6.70545">
        <ele>2431.227295</ele>
        <time>2016-08-16T07:50:35Z</time>
      </trkpt>
      <trkpt lat="44.73265" lon="6.70519">
        <ele>2427.720703</ele>
        <time>2016-08-16T07:50:40Z</time>
      </trkpt>
      <trkpt lat="44.73266" lon="6.70493">
        <ele>2423.388916</ele>
        <time>2016-08-16T07:51:25Z</time>
      </trkpt>
      <trkpt lat="44.73275" lon="6.70471">
        <ele>2422.583008</ele>
        <time>2016-08-16T07:51:30Z</time>
      </trkpt>
      <trkpt lat="44.73289" lon="6.70454">
        <ele>2424.312256</ele>
        <time>2016-08-16T07:51:35Z</time>
      </trkpt>
      <trkpt lat="44.73304" lon="6.7044">
        <ele>2423.108154</ele>
        <time>2016-08-16T07:51:40Z</time>
      </trkpt>
      <trkpt lat="44.73325" lon="6.70438">
        <ele>2424.541748</ele>
        <time>2016-08-16T07:51:46Z</time>
      </trkpt>
      <trkpt lat="44.73342" lon="6.70427">
        <ele>2421.927002</ele>
        <time>2016-08-16T07:51:52Z</time>
      </trkpt>
      <trkpt lat="44.73356" lon="6.70408">
        <ele>2415.638672</ele>
        <time>2016-08-16T07:51:58Z</time>
      </trkpt>
      <trkpt lat="44.73371" lon="6.70389">
        <ele>2409.294922</ele>
        <time>2016-08-16T07:52:05Z</time>
      </trkpt>
      <trkpt lat="44.73387" lon="6.70375">
        <ele>2406.086914</ele>
        <time>2016-08-16T07:52:12Z</time>
      </trkpt>
      <trkpt lat="44.73393" lon="6.70348">
        <ele>2397.945557</ele>
        <time>2016-08-16T07:52:20Z</time>
      </trkpt>
      <trkpt lat="44.73385" lon="6.7032">
        <ele>2390.075928</ele>
        <time>2016-08-16T07:52:24Z</time>
      </trkpt>
      <trkpt lat="44.73385" lon="6.7029">
        <ele>2384.977539</ele>
        <time>2016-08-16T07:52:30Z</time>
      </trkpt>
      <trkpt lat="44.73376" lon="6.70263">
        <ele>2379.161865</ele>
        <time>2016-08-16T07:52:35Z</time>
      </trkpt>
      <trkpt lat="44.73357" lon="6.70268">
        <ele>2375.201904</ele>
        <time>2016-08-16T07:52:45Z</time>
      </trkpt>
      <trkpt lat="44.73347" lon="6.70295">
        <ele>2379.036621</ele>
        <time>2016-08-16T07:52:50Z</time>
      </trkpt>
      <trkpt lat="44.73342" lon="6.7032">
        <ele>2383.611816</ele>
        <time>2016-08-16T07:52:55Z</time>
      </trkpt>
      <trkpt lat="44.73325" lon="6.70331">
        <ele>2383.638672</ele>
        <time>2016-08-16T07:53:02Z</time>
      </trkpt>
      <trkpt lat="44.73307" lon="6.70333">
        <ele>2381.963379</ele>
        <time>2016-08-16T07:53:07Z</time>
      </trkpt>
      <trkpt lat="44.73288" lon="6.7033">
        <ele>2376.828857</ele>
        <time>2016-08-16T07:53:12Z</time>
      </trkpt>
      <trkpt lat="44.73268" lon="6.70325">
        <ele>2370.041748</ele>
        <time>2016-08-16T07:53:17Z</time>
      </trkpt>
      <trkpt lat="44.73247" lon="6.70317">
        <ele>2362.453613</ele>
        <time>2016-08-16T07:53:22Z</time>
      </trkpt>
      <trkpt lat="44.73228" lon="6.70315">
        <ele>2357.169922</ele>
        <time>2016-08-16T07:53:27Z</time>
      </trkpt>
      <trkpt lat="44.73208" lon="6.70308">
        <ele>2350.471436</ele>
        <time>2016-08-16T07:53:32Z</time>
      </trkpt>
      <trkpt lat="44.73188" lon="6.70314">
        <ele>2347.021973</ele>
        <time>2016-08-16T07:53:38Z</time>
      </trkpt>
      <trkpt lat="44.7317" lon="6.70307">
        <ele>2341.878418</ele>
        <time>2016-08-16T07:53:45Z</time>
      </trkpt>
      <trkpt lat="44.73158" lon="6.70288">
        <ele>2336.156738</ele>
        <time>2016-08-16T07:54:28Z</time>
      </trkpt>
      <trkpt lat="44.73157" lon="6.70257">
        <ele>2331.696533</ele>
        <time>2016-08-16T07:54:33Z</time>
      </trkpt>
      <trkpt lat="44.73161" lon="6.7023">
        <ele>2327.920654</ele>
        <time>2016-08-16T07:54:38Z</time>
      </trkpt>
      <trkpt lat="44.73166" lon="6.70205">
        <ele>2324.87793</ele>
        <time>2016-08-16T07:54:43Z</time>
      </trkpt>
      <trkpt lat="44.73156" lon="6.70181">
        <ele>2318.959229</ele>
        <time>2016-08-16T07:54:49Z</time>
      </trkpt>
      <trkpt lat="44.73145" lon="6.70155">
        <ele>2313.321533</ele>
        <time>2016-08-16T07:54:54Z</time>
      </trkpt>
      <trkpt lat="44.73127" lon="6.70149">
        <ele>2308.955811</ele>
        <time>2016-08-16T07:55:01Z</time>
      </trkpt>
      <trkpt lat="44.73113" lon="6.70131">
        <ele>2304.202881</ele>
        <time>2016-08-16T07:55:07Z</time>
      </trkpt>
      <trkpt lat="44.73108" lon="6.70105">
        <ele>2300.253418</ele>
        <time>2016-08-16T07:55:13Z</time>
      </trkpt>
      <trkpt lat="44.7311" lon="6.7008">
        <ele>2297.798096</ele>
        <time>2016-08-16T07:55:25Z</time>
      </trkpt>
      <trkpt lat="44.73113" lon="6.70051">
        <ele>2295.112793</ele>
        <time>2016-08-16T07:55:33Z</time>
      </trkpt>
      <trkpt lat="44.7312" lon="6.70027">
        <ele>2293.562256</ele>
        <time>2016-08-16T07:55:41Z</time>
      </trkpt>
      <trkpt lat="44.73128" lon="6.70002">
        <ele>2292.492432</ele>
        <time>2016-08-16T07:55:48Z</time>
      </trkpt>
      <trkpt lat="44.73132" lon="6.69977">
        <ele>2291.200684</ele>
        <time>2016-08-16T07:55:55Z</time>
      </trkpt>
      <trkpt lat="44.7313" lon="6.69951">
        <ele>2288.651611</ele>
        <time>2016-08-16T07:56:04Z</time>
      </trkpt>
      <trkpt lat="44.7313" lon="6.69924">
        <ele>2286.079346</ele>
        <time>2016-08-16T07:56:10Z</time>
      </trkpt>
      <trkpt lat="44.73132" lon="6.69896">
        <ele>2282.47583</ele>
        <time>2016-08-16T07:56:17Z</time>
      </trkpt>
      <trkpt lat="44.73127" lon="6.69871">
        <ele>2279.91626</ele>
        <time>2016-08-16T07:56:23Z</time>
      </trkpt>
      <trkpt lat="44.73121" lon="6.69847">
        <ele>2279.486572</ele>
        <time>2016-08-16T07:56:30Z</time>
      </trkpt>
      <trkpt lat="44.73112" lon="6.69823">
        <ele>2279.021973</ele>
        <time>2016-08-16T07:56:36Z</time>
      </trkpt>
      <trkpt lat="44.73106" lon="6.69796">
        <ele>2278.039307</ele>
        <time>2016-08-16T07:56:42Z</time>
      </trkpt>
      <trkpt lat="44.73105" lon="6.6977">
        <ele>2276.897949</ele>
        <time>2016-08-16T07:56:50Z</time>
      </trkpt>
      <trkpt lat="44.73101" lon="6.69742">
        <ele>2275.808838</ele>
        <time>2016-08-16T07:57:01Z</time>
      </trkpt>
      <trkpt lat="44.73094" lon="6.69718">
        <ele>2274.751709</ele>
        <time>2016-08-16T07:57:09Z</time>
      </trkpt>
      <trkpt lat="44.73093" lon="6.69691">
        <ele>2272.922607</ele>
        <time>2016-08-16T07:57:17Z</time>
      </trkpt>
      <trkpt lat="44.73086" lon="6.69665">
        <ele>2269.050781</ele>
        <time>2016-08-16T07:57:24Z</time>
      </trkpt>
      <trkpt lat="44.73075" lon="6.69643">
        <ele>2264.084717</ele>
        <time>2016-08-16T07:57:32Z</time>
      </trkpt>
      <trkpt lat="44.73062" lon="6.69627">
        <ele>2259.733154</ele>
        <time>2016-08-16T07:57:41Z</time>
      </trkpt>
      <trkpt lat="44.73062" lon="6.69601">
        <ele>2253.934326</ele>
        <time>2016-08-16T07:58:40Z</time>
      </trkpt>
      <trkpt lat="44.73067" lon="6.69575">
        <ele>2248.844727</ele>
        <time>2016-08-16T07:58:52Z</time>
      </trkpt>
      <trkpt lat="44.73082" lon="6.6956">
        <ele>2245.401855</ele>
        <time>2016-08-16T07:59:03Z</time>
      </trkpt>
      <trkpt lat="44.731" lon="6.69555">
        <ele>2243.662842</ele>
        <time>2016-08-16T07:59:22Z</time>
      </trkpt>
      <trkpt lat="44.73118" lon="6.69564">
        <ele>2244.311035</ele>
        <time>2016-08-16T07:59:31Z</time>
      </trkpt>
      <trkpt lat="44.7312" lon="6.69537">
        <ele>2238.383789</ele>
        <time>2016-08-16T08:00:01Z</time>
      </trkpt>
      <trkpt lat="44.73109" lon="6.69514">
        <ele>2235.25415</ele>
        <time>2016-08-16T08:00:07Z</time>
      </trkpt>
      <trkpt lat="44.73095" lon="6.69491">
        <ele>2231.634521</ele>
        <time>2016-08-16T08:00:12Z</time>
      </trkpt>
      <trkpt lat="44.73078" lon="6.69479">
        <ele>2229.655762</ele>
        <time>2016-08-16T08:00:16Z</time>
      </trkpt>
      <trkpt lat="44.7306" lon="6.69464">
        <ele>2226.367432</ele>
        <time>2016-08-16T08:00:21Z</time>
      </trkpt>
      <trkpt lat="44.73043" lon="6.69447">
        <ele>2220.59375</ele>
        <time>2016-08-16T08:00:25Z</time>
      </trkpt>
      <trkpt lat="44.73026" lon="6.69454">
        <ele>2219.423828</ele>
        <time>2016-08-16T08:00:31Z</time>
      </trkpt>
      <trkpt lat="44.73008" lon="6.69458">
        <ele>2215.674805</ele>
        <time>2016-08-16T08:00:37Z</time>
      </trkpt>
      <trkpt lat="44.7299" lon="6.6947">
        <ele>2211.50708</ele>
        <time>2016-08-16T08:00:43Z</time>
      </trkpt>
      <trkpt lat="44.72972" lon="6.6948">
        <ele>2206.948975</ele>
        <time>2016-08-16T08:00:49Z</time>
      </trkpt>
      <trkpt lat="44.72954" lon="6.69491">
        <ele>2202.626221</ele>
        <time>2016-08-16T08:00:54Z</time>
      </trkpt>
      <trkpt lat="44.72935" lon="6.69507">
        <ele>2198.474121</ele>
        <time>2016-08-16T08:00:59Z</time>
      </trkpt>
      <trkpt lat="44.72917" lon="6.69517">
        <ele>2194.688232</ele>
        <time>2016-08-16T08:01:04Z</time>
      </trkpt>
      <trkpt lat="44.72899" lon="6.69509">
        <ele>2189.98877</ele>
        <time>2016-08-16T08:01:11Z</time>
      </trkpt>
      <trkpt lat="44.72885" lon="6.69492">
        <ele>2185.763916</ele>
        <time>2016-08-16T08:01:19Z</time>
      </trkpt>
      <trkpt lat="44.72869" lon="6.69475">
        <ele>2182.054199</ele>
        <time>2016-08-16T08:01:25Z</time>
      </trkpt>
      <trkpt lat="44.72855" lon="6.69452">
        <ele>2179.141846</ele>
        <time>2016-08-16T08:01:30Z</time>
      </trkpt>
      <trkpt lat="44.72848" lon="6.69426">
        <ele>2177.065918</ele>
        <time>2016-08-16T08:01:38Z</time>
      </trkpt>
      <trkpt lat="44.72835" lon="6.69406">
        <ele>2174.263916</ele>
        <time>2016-08-16T08:02:04Z</time>
      </trkpt>
      <trkpt lat="44.72826" lon="6.69383">
        <ele>2174.909668</ele>
        <time>2016-08-16T08:02:14Z</time>
      </trkpt>
      <trkpt lat="44.72807" lon="6.69385">
        <ele>2172.452148</ele>
        <time>2016-08-16T08:02:27Z</time>
      </trkpt>
      <trkpt lat="44.72786" lon="6.69384">
        <ele>2171.162598</ele>
        <time>2016-08-16T08:02:36Z</time>
      </trkpt>
      <trkpt lat="44.72768" lon="6.69385">
        <ele>2170.658203</ele>
        <time>2016-08-16T08:02:42Z</time>
      </trkpt>
      <trkpt lat="44.7275" lon="6.69385">
        <ele>2170.270996</ele>
        <time>2016-08-16T08:02:47Z</time>
      </trkpt>
      <trkpt lat="44.72732" lon="6.69383">
        <ele>2171.922363</ele>
        <time>2016-08-16T08:02:58Z</time>
      </trkpt>
      <trkpt lat="44.72713" lon="6.69384">
        <ele>2172.965088</ele>
        <time>2016-08-16T08:03:05Z</time>
      </trkpt>
      <trkpt lat="44.72695" lon="6.69384">
        <ele>2174.077148</ele>
        <time>2016-08-16T08:03:13Z</time>
      </trkpt>
      <trkpt lat="44.72676" lon="6.69385">
        <ele>2174.986572</ele>
        <time>2016-08-16T08:03:41Z</time>
      </trkpt>
      <trkpt lat="44.72656" lon="6.69389">
        <ele>2175.177979</ele>
        <time>2016-08-16T08:03:50Z</time>
      </trkpt>
      <trkpt lat="44.72638" lon="6.69391">
        <ele>2173.885498</ele>
        <time>2016-08-16T08:03:57Z</time>
      </trkpt>
      <trkpt lat="44.72619" lon="6.69386">
        <ele>2173.485596</ele>
        <time>2016-08-16T08:04:05Z</time>
      </trkpt>
      <trkpt lat="44.72601" lon="6.69382">
        <ele>2172.308105</ele>
        <time>2016-08-16T08:04:14Z</time>
      </trkpt>
      <trkpt lat="44.72582" lon="6.69384">
        <ele>2169.691895</ele>
        <time>2016-08-16T08:04:25Z</time>
      </trkpt>
      <trkpt lat="44.72562" lon="6.69379">
        <ele>2167.88916</ele>
        <time>2016-08-16T08:08:20Z</time>
      </trkpt>
      <trkpt lat="44.72545" lon="6.6937">
        <ele>2167.112305</ele>
        <time>2016-08-16T08:08:27Z</time>
      </trkpt>
      <trkpt lat="44.72527" lon="6.69363">
        <ele>2165.951904</ele>
        <time>2016-08-16T08:08:38Z</time>
      </trkpt>
      <trkpt lat="44.72512" lon="6.69346">
        <ele>2167.009033</ele>
        <time>2016-08-16T08:08:46Z</time>
      </trkpt>
      <trkpt lat="44.72495" lon="6.69332">
        <ele>2167.527832</ele>
        <time>2016-08-16T08:08:50Z</time>
      </trkpt>
      <trkpt lat="44.72477" lon="6.69334">
        <ele>2164.018555</ele>
        <time>2016-08-16T08:08:56Z</time>
      </trkpt>
      <trkpt lat="44.72458" lon="6.69336">
        <ele>2161.281738</ele>
        <time>2016-08-16T08:09:02Z</time>
      </trkpt>
      <trkpt lat="44.72439" lon="6.69333">
        <ele>2159.962402</ele>
        <time>2016-08-16T08:09:09Z</time>
      </trkpt>
      <trkpt lat="44.72422" lon="6.69322">
        <ele>2161.374512</ele>
        <time>2016-08-16T08:09:17Z</time>
      </trkpt>
      <trkpt lat="44.72404" lon="6.69318">
        <ele>2160.062256</ele>
        <time>2016-08-16T08:09:25Z</time>
      </trkpt>
      <trkpt lat="44.72386" lon="6.69307">
        <ele>2162.449707</ele>
        <time>2016-08-16T08:09:32Z</time>
      </trkpt>
      <trkpt lat="44.72369" lon="6.69298">
        <ele>2163.591064</ele>
        <time>2016-08-16T08:09:40Z</time>
      </trkpt>
      <trkpt lat="44.72349" lon="6.69297">
        <ele>2160.886963</ele>
        <time>2016-08-16T08:09:47Z</time>
      </trkpt>
      <trkpt lat="44.72331" lon="6.69288">
        <ele>2162.282959</ele>
        <time>2016-08-16T08:09:56Z</time>
      </trkpt>
      <trkpt lat="44.72313" lon="6.69284">
        <ele>2161.116455</ele>
        <time>2016-08-16T08:10:04Z</time>
      </trkpt>
      <trkpt lat="44.72295" lon="6.69273">
        <ele>2163.547607</ele>
        <time>2016-08-16T08:10:13Z</time>
      </trkpt>
      <trkpt lat="44.72281" lon="6.69256">
        <ele>2168.750244</ele>
        <time>2016-08-16T08:10:28Z</time>
      </trkpt>
      <trkpt lat="44.72264" lon="6.69244">
        <ele>2171.10498</ele>
        <time>2016-08-16T08:10:54Z</time>
      </trkpt>
      <trkpt lat="44.72248" lon="6.6923">
        <ele>2174.244873</ele>
        <time>2016-08-16T08:11:52Z</time>
      </trkpt>
      <trkpt lat="44.72231" lon="6.69216">
        <ele>2176.628174</ele>
        <time>2016-08-16T08:12:15Z</time>
      </trkpt>
      <trkpt lat="44.72215" lon="6.69204">
        <ele>2179.175781</ele>
        <time>2016-08-16T08:12:26Z</time>
      </trkpt>
      <trkpt lat="44.72197" lon="6.69195">
        <ele>2183.662354</ele>
        <time>2016-08-16T08:12:38Z</time>
      </trkpt>
      <trkpt lat="44.7218" lon="6.69187">
        <ele>2187.476807</ele>
        <time>2016-08-16T08:13:02Z</time>
      </trkpt>
      <trkpt lat="44.72161" lon="6.69184">
        <ele>2188.092041</ele>
        <time>2016-08-16T08:13:15Z</time>
      </trkpt>
      <trkpt lat="44.72143" lon="6.69181">
        <ele>2187.752686</ele>
        <time>2016-08-16T08:13:39Z</time>
      </trkpt>
      <trkpt lat="44.7213" lon="6.69163">
        <ele>2189.893311</ele>
        <time>2016-08-16T08:14:10Z</time>
      </trkpt>
      <trkpt lat="44.72117" lon="6.69145">
        <ele>2190.408936</ele>
        <time>2016-08-16T08:14:28Z</time>
      </trkpt>
      <trkpt lat="44.72105" lon="6.69126">
        <ele>2191.555908</ele>
        <time>2016-08-16T08:14:57Z</time>
      </trkpt>
      <trkpt lat="44.72088" lon="6.69116">
        <ele>2190.332031</ele>
        <time>2016-08-16T08:15:38Z</time>
      </trkpt>
      <trkpt lat="44.72074" lon="6.69099">
        <ele>2191.382324</ele>
        <time>2016-08-16T08:15:44Z</time>
      </trkpt>
      <trkpt lat="44.7206" lon="6.69082">
        <ele>2192.09082</ele>
        <time>2016-08-16T08:15:49Z</time>
      </trkpt>
      <trkpt lat="44.72045" lon="6.69062">
        <ele>2192.538818</ele>
        <time>2016-08-16T08:15:55Z</time>
      </trkpt>
      <trkpt lat="44.72033" lon="6.69041">
        <ele>2193.713623</ele>
        <time>2016-08-16T08:16:00Z</time>
      </trkpt>
      <trkpt lat="44.72019" lon="6.69019">
        <ele>2194.368408</ele>
        <time>2016-08-16T08:16:05Z</time>
      </trkpt>
      <trkpt lat="44.72006" lon="6.68997">
        <ele>2194.508301</ele>
        <time>2016-08-16T08:16:12Z</time>
      </trkpt>
      <trkpt lat="44.71996" lon="6.68975">
        <ele>2195.220703</ele>
        <time>2016-08-16T08:16:17Z</time>
      </trkpt>
      <trkpt lat="44.71991" lon="6.6895">
        <ele>2196.683594</ele>
        <time>2016-08-16T08:16:25Z</time>
      </trkpt>
      <trkpt lat="44.71981" lon="6.68927">
        <ele>2197.177246</ele>
        <time>2016-08-16T08:16:35Z</time>
      </trkpt>
      <trkpt lat="44.71963" lon="6.68926">
        <ele>2194.713623</ele>
        <time>2016-08-16T08:17:03Z</time>
      </trkpt>
      <trkpt lat="44.71943" lon="6.68924">
        <ele>2195.595703</ele>
        <time>2016-08-16T08:17:21Z</time>
      </trkpt>
      <trkpt lat="44.71928" lon="6.6891">
        <ele>2198.160156</ele>
        <time>2016-08-16T08:17:32Z</time>
      </trkpt>
      <trkpt lat="44.7191" lon="6.68904">
        <ele>2200.837646</ele>
        <time>2016-08-16T08:17:51Z</time>
      </trkpt>
      <trkpt lat="44.71891" lon="6.68896">
        <ele>2205.189697</ele>
        <time>2016-08-16T08:18:54Z</time>
      </trkpt>
      <trkpt lat="44.71873" lon="6.68892">
        <ele>2209.022217</ele>
        <time>2016-08-16T08:19:21Z</time>
      </trkpt>
      <trkpt lat="44.71854" lon="6.68895">
        <ele>2213.058594</ele>
        <time>2016-08-16T08:20:07Z</time>
      </trkpt>
      <trkpt lat="44.71834" lon="6.68898">
        <ele>2217.512207</ele>
        <time>2016-08-16T08:20:38Z</time>
      </trkpt>
      <trkpt lat="44.71816" lon="6.68899">
        <ele>2222.351318</ele>
        <time>2016-08-16T08:21:15Z</time>
      </trkpt>
      <trkpt lat="44.718" lon="6.68887">
        <ele>2228.38208</ele>
        <time>2016-08-16T08:21:39Z</time>
      </trkpt>
      <trkpt lat="44.71782" lon="6.68891">
        <ele>2233.622559</ele>
        <time>2016-08-16T08:22:07Z</time>
      </trkpt>
      <trkpt lat="44.71764" lon="6.68889">
        <ele>2239.666016</ele>
        <time>2016-08-16T08:23:33Z</time>
      </trkpt>
      <trkpt lat="44.71745" lon="6.68888">
        <ele>2245.739258</ele>
        <time>2016-08-16T08:24:28Z</time>
      </trkpt>
      <trkpt lat="44.71727" lon="6.68883">
        <ele>2252.171387</ele>
        <time>2016-08-16T08:25:14Z</time>
      </trkpt>
      <trkpt lat="44.71709" lon="6.6889">
        <ele>2257.405273</ele>
        <time>2016-08-16T08:25:44Z</time>
      </trkpt>
      <trkpt lat="44.71695" lon="6.68906">
        <ele>2260.229248</ele>
        <time>2016-08-16T08:26:12Z</time>
      </trkpt>
      <trkpt lat="44.71677" lon="6.68917">
        <ele>2262.109131</ele>
        <time>2016-08-16T08:26:50Z</time>
      </trkpt>
      <trkpt lat="44.71659" lon="6.68913">
        <ele>2265.226563</ele>
        <time>2016-08-16T08:27:23Z</time>
      </trkpt>
      <trkpt lat="44.71641" lon="6.68903">
        <ele>2269.01001</ele>
        <time>2016-08-16T08:32:19Z</time>
      </trkpt>
      <trkpt lat="44.71624" lon="6.68915">
        <ele>2264.140137</ele>
        <time>2016-08-16T08:32:28Z</time>
      </trkpt>
      <trkpt lat="44.71605" lon="6.68926">
        <ele>2259.733643</ele>
        <time>2016-08-16T08:32:33Z</time>
      </trkpt>
      <trkpt lat="44.71585" lon="6.68934">
        <ele>2254.757324</ele>
        <time>2016-08-16T08:32:38Z</time>
      </trkpt>
      <trkpt lat="44.7157" lon="6.68948">
        <ele>2250.541992</ele>
        <time>2016-08-16T08:32:44Z</time>
      </trkpt>
      <trkpt lat="44.71551" lon="6.68962">
        <ele>2244.793213</ele>
        <time>2016-08-16T08:32:50Z</time>
      </trkpt>
      <trkpt lat="44.71532" lon="6.68972">
        <ele>2238.4729</ele>
        <time>2016-08-16T08:32:55Z</time>
      </trkpt>
      <trkpt lat="44.71512" lon="6.68974">
        <ele>2232.383789</ele>
        <time>2016-08-16T08:33:01Z</time>
      </trkpt>
      <trkpt lat="44.71496" lon="6.68962">
        <ele>2227.572754</ele>
        <time>2016-08-16T08:33:07Z</time>
      </trkpt>
      <trkpt lat="44.71476" lon="6.68954">
        <ele>2221.828857</ele>
        <time>2016-08-16T08:33:13Z</time>
      </trkpt>
      <trkpt lat="44.71455" lon="6.6895">
        <ele>2215.652344</ele>
        <time>2016-08-16T08:33:19Z</time>
      </trkpt>
      <trkpt lat="44.71438" lon="6.68943">
        <ele>2210.686523</ele>
        <time>2016-08-16T08:33:25Z</time>
      </trkpt>
      <trkpt lat="44.7142" lon="6.6893">
        <ele>2205.163574</ele>
        <time>2016-08-16T08:33:31Z</time>
      </trkpt>
      <trkpt lat="44.7141" lon="6.68905">
        <ele>2199.812744</ele>
        <time>2016-08-16T08:33:40Z</time>
      </trkpt>
      <trkpt lat="44.71407" lon="6.68876">
        <ele>2196.745605</ele>
        <time>2016-08-16T08:33:47Z</time>
      </trkpt>
      <trkpt lat="44.71398" lon="6.68854">
        <ele>2192.579834</ele>
        <time>2016-08-16T08:33:57Z</time>
      </trkpt>
      <trkpt lat="44.71378" lon="6.68859">
        <ele>2185.70752</ele>
        <time>2016-08-16T08:34:05Z</time>
      </trkpt>
      <trkpt lat="44.71359" lon="6.68859">
        <ele>2181.468262</ele>
        <time>2016-08-16T08:34:11Z</time>
      </trkpt>
      <trkpt lat="44.71338" lon="6.6886">
        <ele>2176.885986</ele>
        <time>2016-08-16T08:34:16Z</time>
      </trkpt>
      <trkpt lat="44.71317" lon="6.68858">
        <ele>2174.189697</ele>
        <time>2016-08-16T08:34:21Z</time>
      </trkpt>
      <trkpt lat="44.71298" lon="6.68855">
        <ele>2173.174805</ele>
        <time>2016-08-16T08:34:25Z</time>
      </trkpt>
      <trkpt lat="44.7128" lon="6.6886">
        <ele>2170.44165</ele>
        <time>2016-08-16T08:34:31Z</time>
      </trkpt>
      <trkpt lat="44.7126" lon="6.68862">
        <ele>2168.772217</ele>
        <time>2016-08-16T08:34:42Z</time>
      </trkpt>
      <trkpt lat="44.71243" lon="6.68865">
        <ele>2166.207275</ele>
        <time>2016-08-16T08:34:49Z</time>
      </trkpt>
      <trkpt lat="44.71224" lon="6.68862">
        <ele>2165.448242</ele>
        <time>2016-08-16T08:34:54Z</time>
      </trkpt>
      <trkpt lat="44.71204" lon="6.68862">
        <ele>2163.210449</ele>
        <time>2016-08-16T08:34:58Z</time>
      </trkpt>
      <trkpt lat="44.71185" lon="6.6886">
        <ele>2160.941895</ele>
        <time>2016-08-16T08:35:07Z</time>
      </trkpt>
      <trkpt lat="44.71166" lon="6.68854">
        <ele>2158.910645</ele>
        <time>2016-08-16T08:35:14Z</time>
      </trkpt>
      <trkpt lat="44.71148" lon="6.68846">
        <ele>2157.544189</ele>
        <time>2016-08-16T08:35:19Z</time>
      </trkpt>
      <trkpt lat="44.71134" lon="6.68829">
        <ele>2159.48877</ele>
        <time>2016-08-16T08:36:01Z</time>
      </trkpt>
      <trkpt lat="44.71121" lon="6.68811">
        <ele>2161.770752</ele>
        <time>2016-08-16T08:36:36Z</time>
      </trkpt>
      <trkpt lat="44.71105" lon="6.68798">
        <ele>2160.752686</ele>
        <time>2016-08-16T08:37:30Z</time>
      </trkpt>
      <trkpt lat="44.71088" lon="6.68787">
        <ele>2158.500732</ele>
        <time>2016-08-16T08:37:42Z</time>
      </trkpt>
      <trkpt lat="44.71075" lon="6.68769">
        <ele>2158.959717</ele>
        <time>2016-08-16T08:37:52Z</time>
      </trkpt>
      <trkpt lat="44.71062" lon="6.68751">
        <ele>2157.993652</ele>
        <time>2016-08-16T08:38:02Z</time>
      </trkpt>
      <trkpt lat="44.71054" lon="6.68727">
        <ele>2159.706787</ele>
        <time>2016-08-16T08:38:14Z</time>
      </trkpt>
      <trkpt lat="44.71043" lon="6.68707">
        <ele>2157.582764</ele>
        <time>2016-08-16T08:38:26Z</time>
      </trkpt>
      <trkpt lat="44.71052" lon="6.68728">
        <ele>2158.476074</ele>
        <time>2016-08-16T08:40:16Z</time>
      </trkpt>
      <trkpt lat="44.71061" lon="6.68752">
        <ele>2157.075684</ele>
        <time>2016-08-16T08:40:38Z</time>
      </trkpt>
      <trkpt lat="44.71073" lon="6.68771">
        <ele>2157.655029</ele>
        <time>2016-08-16T08:40:54Z</time>
      </trkpt>
      <trkpt lat="44.71086" lon="6.68788">
        <ele>2157.157959</ele>
        <time>2016-08-16T08:41:09Z</time>
      </trkpt>
      <trkpt lat="44.71103" lon="6.68799">
        <ele>2159.977295</ele>
        <time>2016-08-16T08:41:28Z</time>
      </trkpt>
      <trkpt lat="44.71119" lon="6.68811">
        <ele>2160.984619</ele>
        <time>2016-08-16T08:42:04Z</time>
      </trkpt>
      <trkpt lat="44.71134" lon="6.68827">
        <ele>2160.245361</ele>
        <time>2016-08-16T08:42:18Z</time>
      </trkpt>
      <trkpt lat="44.71147" lon="6.68847">
        <ele>2156.741211</ele>
        <time>2016-08-16T08:42:35Z</time>
      </trkpt>
      <trkpt lat="44.71165" lon="6.68855">
        <ele>2158.004639</ele>
        <time>2016-08-16T08:43:08Z</time>
      </trkpt>
      <trkpt lat="44.71182" lon="6.68863">
        <ele>2159.139648</ele>
        <time>2016-08-16T08:43:24Z</time>
      </trkpt>
      <trkpt lat="44.712" lon="6.68866">
        <ele>2161.118652</ele>
        <time>2016-08-16T08:43:57Z</time>
      </trkpt>
      <trkpt lat="44.71218" lon="6.68868">
        <ele>2162.70166</ele>
        <time>2016-08-16T08:44:02Z</time>
      </trkpt>
      <trkpt lat="44.71238" lon="6.68868">
        <ele>2164.870605</ele>
        <time>2016-08-16T08:44:14Z</time>
      </trkpt>
      <trkpt lat="44.71257" lon="6.68865">
        <ele>2167.433105</ele>
        <time>2016-08-16T08:44:50Z</time>
      </trkpt>
      <trkpt lat="44.71275" lon="6.68864">
        <ele>2169.190186</ele>
        <time>2016-08-16T08:45:00Z</time>
      </trkpt>
      <trkpt lat="44.71294" lon="6.68856">
        <ele>2172.517334</ele>
        <time>2016-08-16T08:45:12Z</time>
      </trkpt>
      <trkpt lat="44.71274" lon="6.6886">
        <ele>2169.972412</ele>
        <time>2016-08-16T08:46:28Z</time>
      </trkpt>
      <trkpt lat="44.71256" lon="6.68863">
        <ele>2168.165771</ele>
        <time>2016-08-16T08:46:35Z</time>
      </trkpt>
      <trkpt lat="44.71237" lon="6.68865">
        <ele>2165.797852</ele>
        <time>2016-08-16T08:46:41Z</time>
      </trkpt>
      <trkpt lat="44.71215" lon="6.68862">
        <ele>2164.56665</ele>
        <time>2016-08-16T08:46:46Z</time>
      </trkpt>
      <trkpt lat="44.71195" lon="6.6886">
        <ele>2162.916504</ele>
        <time>2016-08-16T08:46:52Z</time>
      </trkpt>
      <trkpt lat="44.71177" lon="6.68857">
        <ele>2160.160889</ele>
        <time>2016-08-16T08:47:01Z</time>
      </trkpt>
      <trkpt lat="44.71156" lon="6.68848">
        <ele>2158.872559</ele>
        <time>2016-08-16T08:47:08Z</time>
      </trkpt>
      <trkpt lat="44.7114" lon="6.68837">
        <ele>2158.414551</ele>
        <time>2016-08-16T08:47:16Z</time>
      </trkpt>
      <trkpt lat="44.71124" lon="6.68823">
        <ele>2158.22168</ele>
        <time>2016-08-16T08:47:26Z</time>
      </trkpt>
      <trkpt lat="44.71105" lon="6.68814">
        <ele>2154.974121</ele>
        <time>2016-08-16T08:47:35Z</time>
      </trkpt>
      <trkpt lat="44.71087" lon="6.68807">
        <ele>2151.386719</ele>
        <time>2016-08-16T08:47:41Z</time>
      </trkpt>
      <trkpt lat="44.71071" lon="6.68793">
        <ele>2149.976318</ele>
        <time>2016-08-16T08:47:50Z</time>
      </trkpt>
      <trkpt lat="44.71057" lon="6.68776">
        <ele>2148.834717</ele>
        <time>2016-08-16T08:47:58Z</time>
      </trkpt>
      <trkpt lat="44.71044" lon="6.68758">
        <ele>2146.85791</ele>
        <time>2016-08-16T08:48:06Z</time>
      </trkpt>
      <trkpt lat="44.71032" lon="6.68738">
        <ele>2144.796387</ele>
        <time>2016-08-16T08:48:16Z</time>
      </trkpt>
      <trkpt lat="44.71023" lon="6.68715">
        <ele>2144.291748</ele>
        <time>2016-08-16T08:48:25Z</time>
      </trkpt>
      <trkpt lat="44.71011" lon="6.68696">
        <ele>2140.699463</ele>
        <time>2016-08-16T08:48:37Z</time>
      </trkpt>
      <trkpt lat="44.70997" lon="6.68679">
        <ele>2139.096191</ele>
        <time>2016-08-16T08:49:23Z</time>
      </trkpt>
      <trkpt lat="44.70978" lon="6.68671">
        <ele>2131.475342</ele>
        <time>2016-08-16T08:49:36Z</time>
      </trkpt>
      <trkpt lat="44.7096" lon="6.68662">
        <ele>2126.877197</ele>
        <time>2016-08-16T08:49:44Z</time>
      </trkpt>
      <trkpt lat="44.70941" lon="6.68652">
        <ele>2122.094727</ele>
        <time>2016-08-16T08:49:53Z</time>
      </trkpt>
      <trkpt lat="44.70922" lon="6.68637">
        <ele>2119.123779</ele>
        <time>2016-08-16T08:50:01Z</time>
      </trkpt>
      <trkpt lat="44.70908" lon="6.6862">
        <ele>2119.81958</ele>
        <time>2016-08-16T08:50:10Z</time>
      </trkpt>
      <trkpt lat="44.70896" lon="6.68601">
        <ele>2121.84082</ele>
        <time>2016-08-16T08:50:18Z</time>
      </trkpt>
      <trkpt lat="44.70882" lon="6.68584">
        <ele>2120.89917</ele>
        <time>2016-08-16T08:50:24Z</time>
      </trkpt>
      <trkpt lat="44.70872" lon="6.68562">
        <ele>2122.684814</ele>
        <time>2016-08-16T08:50:40Z</time>
      </trkpt>
      <trkpt lat="44.70861" lon="6.68539">
        <ele>2119.300293</ele>
        <time>2016-08-16T08:50:59Z</time>
      </trkpt>
      <trkpt lat="44.7085" lon="6.68519">
        <ele>2113.063965</ele>
        <time>2016-08-16T08:51:08Z</time>
      </trkpt>
      <trkpt lat="44.70846" lon="6.68494">
        <ele>2112.179932</ele>
        <time>2016-08-16T08:51:17Z</time>
      </trkpt>
      <trkpt lat="44.70851" lon="6.68468">
        <ele>2117.028809</ele>
        <time>2016-08-16T08:51:25Z</time>
      </trkpt>
      <trkpt lat="44.70855" lon="6.68443">
        <ele>2121.075928</ele>
        <time>2016-08-16T08:51:35Z</time>
      </trkpt>
      <trkpt lat="44.70841" lon="6.68426">
        <ele>2115.50293</ele>
        <time>2016-08-16T08:52:07Z</time>
      </trkpt>
      <trkpt lat="44.7083" lon="6.68402">
        <ele>2116.994385</ele>
        <time>2016-08-16T08:52:37Z</time>
      </trkpt>
      <trkpt lat="44.70812" lon="6.68398">
        <ele>2109.128662</ele>
        <time>2016-08-16T08:52:43Z</time>
      </trkpt>
      <trkpt lat="44.70793" lon="6.68386">
        <ele>2105.667725</ele>
        <time>2016-08-16T08:52:50Z</time>
      </trkpt>
      <trkpt lat="44.70776" lon="6.68373">
        <ele>2104.001953</ele>
        <time>2016-08-16T08:52:57Z</time>
      </trkpt>
      <trkpt lat="44.70758" lon="6.68368">
        <ele>2099.873535</ele>
        <time>2016-08-16T08:53:03Z</time>
      </trkpt>
      <trkpt lat="44.70739" lon="6.68357">
        <ele>2098.664307</ele>
        <time>2016-08-16T08:53:11Z</time>
      </trkpt>
      <trkpt lat="44.70721" lon="6.68354">
        <ele>2094.872803</ele>
        <time>2016-08-16T08:53:17Z</time>
      </trkpt>
      <trkpt lat="44.70701" lon="6.68351">
        <ele>2093.974365</ele>
        <time>2016-08-16T08:53:24Z</time>
      </trkpt>
      <trkpt lat="44.70683" lon="6.68356">
        <ele>2091.939453</ele>
        <time>2016-08-16T08:53:30Z</time>
      </trkpt>
      <trkpt lat="44.70667" lon="6.68371">
        <ele>2086.515869</ele>
        <time>2016-08-16T08:53:37Z</time>
      </trkpt>
      <trkpt lat="44.70655" lon="6.6839">
        <ele>2081.740723</ele>
        <time>2016-08-16T08:53:44Z</time>
      </trkpt>
      <trkpt lat="44.70639" lon="6.68405">
        <ele>2079.413818</ele>
        <time>2016-08-16T08:53:52Z</time>
      </trkpt>
      <trkpt lat="44.70623" lon="6.68421">
        <ele>2075.567627</ele>
        <time>2016-08-16T08:54:01Z</time>
      </trkpt>
      <trkpt lat="44.70607" lon="6.68432">
        <ele>2069.54541</ele>
        <time>2016-08-16T08:54:09Z</time>
      </trkpt>
      <trkpt lat="44.70586" lon="6.68437">
        <ele>2065.844727</ele>
        <time>2016-08-16T08:54:17Z</time>
      </trkpt>
      <trkpt lat="44.70567" lon="6.68437">
        <ele>2062.260986</ele>
        <time>2016-08-16T08:54:25Z</time>
      </trkpt>
      <trkpt lat="44.70547" lon="6.68435">
        <ele>2058.203613</ele>
        <time>2016-08-16T08:54:32Z</time>
      </trkpt>
      <trkpt lat="44.70527" lon="6.6844">
        <ele>2051.543945</ele>
        <time>2016-08-16T08:54:40Z</time>
      </trkpt>
      <trkpt lat="44.70506" lon="6.6844">
        <ele>2045.465942</ele>
        <time>2016-08-16T08:54:48Z</time>
      </trkpt>
      <trkpt lat="44.70487" lon="6.68444">
        <ele>2039.441772</ele>
        <time>2016-08-16T08:54:54Z</time>
      </trkpt>
      <trkpt lat="44.70466" lon="6.68447">
        <ele>2034.750977</ele>
        <time>2016-08-16T08:55:00Z</time>
      </trkpt>
      <trkpt lat="44.70448" lon="6.68446">
        <ele>2031.419312</ele>
        <time>2016-08-16T08:55:05Z</time>
      </trkpt>
      <trkpt lat="44.70428" lon="6.68448">
        <ele>2027.832886</ele>
        <time>2016-08-16T08:55:10Z</time>
      </trkpt>
      <trkpt lat="44.70407" lon="6.68455">
        <ele>2024.062256</ele>
        <time>2016-08-16T08:55:15Z</time>
      </trkpt>
      <trkpt lat="44.7039" lon="6.68467">
        <ele>2020.919922</ele>
        <time>2016-08-16T08:55:20Z</time>
      </trkpt>
      <trkpt lat="44.70373" lon="6.68479">
        <ele>2018.404297</ele>
        <time>2016-08-16T08:55:24Z</time>
      </trkpt>
      <trkpt lat="44.70362" lon="6.68499">
        <ele>2016.782837</ele>
        <time>2016-08-16T08:55:28Z</time>
      </trkpt>
      <trkpt lat="44.70351" lon="6.6852">
        <ele>2015.539917</ele>
        <time>2016-08-16T08:55:34Z</time>
      </trkpt>
      <trkpt lat="44.70336" lon="6.68537">
        <ele>2012.28833</ele>
        <time>2016-08-16T08:55:39Z</time>
      </trkpt>
      <trkpt lat="44.70318" lon="6.6855">
        <ele>2010.104736</ele>
        <time>2016-08-16T08:55:43Z</time>
      </trkpt>
      <trkpt lat="44.70297" lon="6.68557">
        <ele>2008.243652</ele>
        <time>2016-08-16T08:55:48Z</time>
      </trkpt>
      <trkpt lat="44.70279" lon="6.68563">
        <ele>2006.369873</ele>
        <time>2016-08-16T08:55:54Z</time>
      </trkpt>
      <trkpt lat="44.70261" lon="6.68571">
        <ele>2004.932739</ele>
        <time>2016-08-16T08:56:02Z</time>
      </trkpt>
      <trkpt lat="44.70246" lon="6.68589">
        <ele>1999.153687</ele>
        <time>2016-08-16T08:56:10Z</time>
      </trkpt>
      <trkpt lat="44.70227" lon="6.68603">
        <ele>1993.507813</ele>
        <time>2016-08-16T08:56:17Z</time>
      </trkpt>
      <trkpt lat="44.70223" lon="6.68628">
        <ele>1988.982666</ele>
        <time>2016-08-16T08:56:26Z</time>
      </trkpt>
      <trkpt lat="44.70203" lon="6.68636">
        <ele>1983.252075</ele>
        <time>2016-08-16T08:56:38Z</time>
      </trkpt>
      <trkpt lat="44.70184" lon="6.68629">
        <ele>1979.869629</ele>
        <time>2016-08-16T08:56:45Z</time>
      </trkpt>
      <trkpt lat="44.70165" lon="6.68628">
        <ele>1974.918213</ele>
        <time>2016-08-16T08:56:52Z</time>
      </trkpt>
      <trkpt lat="44.70161" lon="6.68655">
        <ele>1967.809204</ele>
        <time>2016-08-16T08:57:07Z</time>
      </trkpt>
      <trkpt lat="44.70143" lon="6.68657">
        <ele>1962.240601</ele>
        <time>2016-08-16T08:57:18Z</time>
      </trkpt>
      <trkpt lat="44.70129" lon="6.68675">
        <ele>1955.685547</ele>
        <time>2016-08-16T08:57:29Z</time>
      </trkpt>
      <trkpt lat="44.70114" lon="6.6869">
        <ele>1949.574951</ele>
        <time>2016-08-16T08:57:37Z</time>
      </trkpt>
      <trkpt lat="44.70098" lon="6.68704">
        <ele>1941.395264</ele>
        <time>2016-08-16T08:57:46Z</time>
      </trkpt>
      <trkpt lat="44.7009" lon="6.68726">
        <ele>1934.643066</ele>
        <time>2016-08-16T08:58:00Z</time>
      </trkpt>
      <trkpt lat="44.70071" lon="6.6873">
        <ele>1930.022461</ele>
        <time>2016-08-16T08:58:09Z</time>
      </trkpt>
      <trkpt lat="44.70052" lon="6.68731">
        <ele>1924.882935</ele>
        <time>2016-08-16T08:58:20Z</time>
      </trkpt>
      <trkpt lat="44.70044" lon="6.68706">
        <ele>1924.269043</ele>
        <time>2016-08-16T08:58:31Z</time>
      </trkpt>
      <trkpt lat="44.70025" lon="6.68716">
        <ele>1916.477905</ele>
        <time>2016-08-16T08:58:45Z</time>
      </trkpt>
      <trkpt lat="44.70015" lon="6.68738">
        <ele>1912.630127</ele>
        <time>2016-08-16T08:58:52Z</time>
      </trkpt>
      <trkpt lat="44.69999" lon="6.68725">
        <ele>1903.887085</ele>
        <time>2016-08-16T08:59:11Z</time>
      </trkpt>
      <trkpt lat="44.69981" lon="6.68719">
        <ele>1893.672363</ele>
        <time>2016-08-16T09:00:27Z</time>
      </trkpt>
      <trkpt lat="44.69965" lon="6.68739">
        <ele>1889.753784</ele>
        <time>2016-08-16T09:00:39Z</time>
      </trkpt>
      <trkpt lat="44.69954" lon="6.6876">
        <ele>1885.129395</ele>
        <time>2016-08-16T09:00:47Z</time>
      </trkpt>
      <trkpt lat="44.69941" lon="6.6878">
        <ele>1880.301025</ele>
        <time>2016-08-16T09:00:53Z</time>
      </trkpt>
      <trkpt lat="44.69936" lon="6.68808">
        <ele>1878.800537</ele>
        <time>2016-08-16T09:01:00Z</time>
      </trkpt>
      <trkpt lat="44.69924" lon="6.68831">
        <ele>1870.874268</ele>
        <time>2016-08-16T09:01:05Z</time>
      </trkpt>
      <trkpt lat="44.69915" lon="6.68856">
        <ele>1865.950806</ele>
        <time>2016-08-16T09:01:12Z</time>
      </trkpt>
      <trkpt lat="44.69907" lon="6.6888">
        <ele>1859.02478</ele>
        <time>2016-08-16T09:01:18Z</time>
      </trkpt>
      <trkpt lat="44.69888" lon="6.68889">
        <ele>1852.668945</ele>
        <time>2016-08-16T09:01:26Z</time>
      </trkpt>
      <trkpt lat="44.69881" lon="6.68914">
        <ele>1846.200928</ele>
        <time>2016-08-16T09:01:35Z</time>
      </trkpt>
      <trkpt lat="44.69886" lon="6.6894">
        <ele>1839.947388</ele>
        <time>2016-08-16T09:01:44Z</time>
      </trkpt>
      <trkpt lat="44.69896" lon="6.68963">
        <ele>1832.562012</ele>
        <time>2016-08-16T09:01:52Z</time>
      </trkpt>
      <trkpt lat="44.69908" lon="6.68983">
        <ele>1826.467896</ele>
        <time>2016-08-16T09:01:58Z</time>
      </trkpt>
      <trkpt lat="44.69923" lon="6.68998">
        <ele>1822.208618</ele>
        <time>2016-08-16T09:02:10Z</time>
      </trkpt>
      <trkpt lat="44.69934" lon="6.69018">
        <ele>1814.782471</ele>
        <time>2016-08-16T09:02:26Z</time>
      </trkpt>
      <trkpt lat="44.6995" lon="6.69035">
        <ele>1808.584351</ele>
        <time>2016-08-16T09:02:35Z</time>
      </trkpt>
      <trkpt lat="44.69967" lon="6.69047">
        <ele>1804.350952</ele>
        <time>2016-08-16T09:02:43Z</time>
      </trkpt>
      <trkpt lat="44.69984" lon="6.69057">
        <ele>1800.171631</ele>
        <time>2016-08-16T09:02:51Z</time>
      </trkpt>
      <trkpt lat="44.70001" lon="6.69066">
        <ele>1796.128784</ele>
        <time>2016-08-16T09:02:58Z</time>
      </trkpt>
      <trkpt lat="44.6999" lon="6.69088">
        <ele>1785.909424</ele>
        <time>2016-08-16T09:03:16Z</time>
      </trkpt>
      <trkpt lat="44.69974" lon="6.69104">
        <ele>1778.753662</ele>
        <time>2016-08-16T09:03:26Z</time>
      </trkpt>
      <trkpt lat="44.69957" lon="6.69115">
        <ele>1774.255493</ele>
        <time>2016-08-16T09:03:34Z</time>
      </trkpt>
      <trkpt lat="44.6994" lon="6.69125">
        <ele>1769.779297</ele>
        <time>2016-08-16T09:03:41Z</time>
      </trkpt>
      <trkpt lat="44.69923" lon="6.69138">
        <ele>1764.040161</ele>
        <time>2016-08-16T09:03:51Z</time>
      </trkpt>
      <trkpt lat="44.69903" lon="6.69141">
        <ele>1761.832642</ele>
        <time>2016-08-16T09:04:03Z</time>
      </trkpt>
      <trkpt lat="44.69895" lon="6.69164">
        <ele>1750.588257</ele>
        <time>2016-08-16T09:04:19Z</time>
      </trkpt>
      <trkpt lat="44.69913" lon="6.69172">
        <ele>1747.784058</ele>
        <time>2016-08-16T09:04:48Z</time>
      </trkpt>
      <trkpt lat="44.69898" lon="6.6919">
        <ele>1738.256348</ele>
        <time>2016-08-16T09:05:14Z</time>
      </trkpt>
      <trkpt lat="44.69879" lon="6.69193">
        <ele>1735.479492</ele>
        <time>2016-08-16T09:05:22Z</time>
      </trkpt>
      <trkpt lat="44.69861" lon="6.69199">
        <ele>1730.953979</ele>
        <time>2016-08-16T09:05:32Z</time>
      </trkpt>
      <trkpt lat="44.69842" lon="6.69206">
        <ele>1726.193604</ele>
        <time>2016-08-16T09:05:43Z</time>
      </trkpt>
      <trkpt lat="44.69824" lon="6.69219">
        <ele>1719.071167</ele>
        <time>2016-08-16T09:05:51Z</time>
      </trkpt>
      <trkpt lat="44.69807" lon="6.69233">
        <ele>1713.555542</ele>
        <time>2016-08-16T09:05:57Z</time>
      </trkpt>
      <trkpt lat="44.69791" lon="6.69248">
        <ele>1709.348389</ele>
        <time>2016-08-16T09:06:04Z</time>
      </trkpt>
      <trkpt lat="44.69774" lon="6.69264">
        <ele>1704.544189</ele>
        <time>2016-08-16T09:06:11Z</time>
      </trkpt>
      <trkpt lat="44.69758" lon="6.69278">
        <ele>1700.298828</ele>
        <time>2016-08-16T09:06:17Z</time>
      </trkpt>
      <trkpt lat="44.69741" lon="6.69291">
        <ele>1695.879761</ele>
        <time>2016-08-16T09:06:23Z</time>
      </trkpt>
      <trkpt lat="44.69724" lon="6.69303">
        <ele>1691.685181</ele>
        <time>2016-08-16T09:06:28Z</time>
      </trkpt>
      <trkpt lat="44.69704" lon="6.69313">
        <ele>1687.639526</ele>
        <time>2016-08-16T09:06:37Z</time>
      </trkpt>
      <trkpt lat="44.69685" lon="6.69319">
        <ele>1684.843384</ele>
        <time>2016-08-16T09:06:44Z</time>
      </trkpt>
      <trkpt lat="44.69666" lon="6.69328">
        <ele>1680.909424</ele>
        <time>2016-08-16T09:06:51Z</time>
      </trkpt>
      <trkpt lat="44.69647" lon="6.69335">
        <ele>1678.050659</ele>
        <time>2016-08-16T09:06:57Z</time>
      </trkpt>
      <trkpt lat="44.69629" lon="6.69343">
        <ele>1674.314575</ele>
        <time>2016-08-16T09:07:03Z</time>
      </trkpt>
      <trkpt lat="44.69611" lon="6.69349">
        <ele>1671.464355</ele>
        <time>2016-08-16T09:07:09Z</time>
      </trkpt>
      <trkpt lat="44.69593" lon="6.69346">
        <ele>1670.852661</ele>
        <time>2016-08-16T09:07:16Z</time>
      </trkpt>
      <trkpt lat="44.69574" lon="6.69352">
        <ele>1667.561401</ele>
        <time>2016-08-16T09:07:25Z</time>
      </trkpt>
      <trkpt lat="44.69556" lon="6.69357">
        <ele>1664.971313</ele>
        <time>2016-08-16T09:07:34Z</time>
      </trkpt>
      <trkpt lat="44.69536" lon="6.69354">
        <ele>1663.053711</ele>
        <time>2016-08-16T09:07:42Z</time>
      </trkpt>
      <trkpt lat="44.69519" lon="6.69347">
        <ele>1661.680054</ele>
        <time>2016-08-16T09:07:48Z</time>
      </trkpt>
      <trkpt lat="44.69503" lon="6.69333">
        <ele>1660.931152</ele>
        <time>2016-08-16T09:07:55Z</time>
      </trkpt>
      <trkpt lat="44.69484" lon="6.69326">
        <ele>1657.728394</ele>
        <time>2016-08-16T09:08:01Z</time>
      </trkpt>
      <trkpt lat="44.69466" lon="6.69319">
        <ele>1654.511963</ele>
        <time>2016-08-16T09:08:06Z</time>
      </trkpt>
      <trkpt lat="44.69446" lon="6.6931">
        <ele>1650.460571</ele>
        <time>2016-08-16T09:08:12Z</time>
      </trkpt>
      <trkpt lat="44.69427" lon="6.69308">
        <ele>1646.264526</ele>
        <time>2016-08-16T09:08:16Z</time>
      </trkpt>
      <trkpt lat="44.69406" lon="6.69307">
        <ele>1640.668945</ele>
        <time>2016-08-16T09:08:21Z</time>
      </trkpt>
      <trkpt lat="44.69391" lon="6.69288">
        <ele>1635.575073</ele>
        <time>2016-08-16T09:08:28Z</time>
      </trkpt>
      <trkpt lat="44.69393" lon="6.6926">
        <ele>1634.511597</ele>
        <time>2016-08-16T09:08:38Z</time>
      </trkpt>
      <trkpt lat="44.69392" lon="6.69234">
        <ele>1630.636963</ele>
        <time>2016-08-16T09:08:45Z</time>
      </trkpt>
      <trkpt lat="44.69391" lon="6.69207">
        <ele>1626.683472</ele>
        <time>2016-08-16T09:08:52Z</time>
      </trkpt>
      <trkpt lat="44.69391" lon="6.69179">
        <ele>1624.287964</ele>
        <time>2016-08-16T09:08:59Z</time>
      </trkpt>
      <trkpt lat="44.69391" lon="6.69151">
        <ele>1622.147095</ele>
        <time>2016-08-16T09:09:06Z</time>
      </trkpt>
      <trkpt lat="44.6939" lon="6.69125">
        <ele>1619.186035</ele>
        <time>2016-08-16T09:09:12Z</time>
      </trkpt>
      <trkpt lat="44.69389" lon="6.69098">
        <ele>1615.759521</ele>
        <time>2016-08-16T09:09:20Z</time>
      </trkpt>
      <trkpt lat="44.69384" lon="6.69072">
        <ele>1609.001587</ele>
        <time>2016-08-16T09:09:26Z</time>
      </trkpt>
      <trkpt lat="44.69382" lon="6.69045">
        <ele>1603.702637</ele>
        <time>2016-08-16T09:09:33Z</time>
      </trkpt>
      <trkpt lat="44.69383" lon="6.69018">
        <ele>1599.830933</ele>
        <time>2016-08-16T09:09:41Z</time>
      </trkpt>
      <trkpt lat="44.6939" lon="6.68994">
        <ele>1598.497803</ele>
        <time>2016-08-16T09:09:48Z</time>
      </trkpt>
      <trkpt lat="44.69397" lon="6.68971">
        <ele>1597.03125</ele>
        <time>2016-08-16T09:09:56Z</time>
      </trkpt>
      <trkpt lat="44.69404" lon="6.68944">
        <ele>1593.800781</ele>
        <time>2016-08-16T09:10:03Z</time>
      </trkpt>
      <trkpt lat="44.6942" lon="6.68926">
        <ele>1595.81189</ele>
        <time>2016-08-16T09:10:10Z</time>
      </trkpt>
      <trkpt lat="44.69431" lon="6.689">
        <ele>1593.567017</ele>
        <time>2016-08-16T09:10:15Z</time>
      </trkpt>
      <trkpt lat="44.69442" lon="6.68875">
        <ele>1591.742432</ele>
        <time>2016-08-16T09:10:19Z</time>
      </trkpt>
      <trkpt lat="44.69449" lon="6.68849">
        <ele>1588.837646</ele>
        <time>2016-08-16T09:10:24Z</time>
      </trkpt>
      <trkpt lat="44.6946" lon="6.68821">
        <ele>1587.296021</ele>
        <time>2016-08-16T09:10:28Z</time>
      </trkpt>
      <trkpt lat="44.69476" lon="6.6881">
        <ele>1592.154297</ele>
        <time>2016-08-16T09:10:32Z</time>
      </trkpt>
      <trkpt lat="44.69486" lon="6.68785">
        <ele>1590.743164</ele>
        <time>2016-08-16T09:10:37Z</time>
      </trkpt>
      <trkpt lat="44.69493" lon="6.68758">
        <ele>1590.828369</ele>
        <time>2016-08-16T09:10:43Z</time>
      </trkpt>
      <trkpt lat="44.69494" lon="6.68732">
        <ele>1590.526733</ele>
        <time>2016-08-16T09:10:47Z</time>
      </trkpt>
      <trkpt lat="44.69486" lon="6.68708">
        <ele>1584.961792</ele>
        <time>2016-08-16T09:10:51Z</time>
      </trkpt>
      <trkpt lat="44.69473" lon="6.68688">
        <ele>1579.79126</ele>
        <time>2016-08-16T09:10:56Z</time>
      </trkpt>
      <trkpt lat="44.69457" lon="6.6867">
        <ele>1573.431641</ele>
        <time>2016-08-16T09:11:01Z</time>
      </trkpt>
      <trkpt lat="44.69451" lon="6.68643">
        <ele>1572.35376</ele>
        <time>2016-08-16T09:11:07Z</time>
      </trkpt>
      <trkpt lat="44.69462" lon="6.68623">
        <ele>1573.73938</ele>
        <time>2016-08-16T09:11:16Z</time>
      </trkpt>
      <trkpt lat="44.69475" lon="6.68601">
        <ele>1574.703979</ele>
        <time>2016-08-16T09:11:21Z</time>
      </trkpt>
      <trkpt lat="44.69488" lon="6.68581">
        <ele>1577.44104</ele>
        <time>2016-08-16T09:12:04Z</time>
      </trkpt>
      <trkpt lat="44.69496" lon="6.68558">
        <ele>1577.481567</ele>
        <time>2016-08-16T09:12:13Z</time>
      </trkpt>
      <trkpt lat="44.69493" lon="6.68533">
        <ele>1569.990723</ele>
        <time>2016-08-16T09:12:18Z</time>
      </trkpt>
      <trkpt lat="44.69494" lon="6.68506">
        <ele>1564.995972</ele>
        <time>2016-08-16T09:12:24Z</time>
      </trkpt>
      <trkpt lat="44.69497" lon="6.68481">
        <ele>1563.542114</ele>
        <time>2016-08-16T09:12:34Z</time>
      </trkpt>
      <trkpt lat="44.69499" lon="6.68455">
        <ele>1561.95752</ele>
        <time>2016-08-16T09:12:43Z</time>
      </trkpt>
      <trkpt lat="44.69493" lon="6.68431">
        <ele>1551.255249</ele>
        <time>2016-08-16T09:12:52Z</time>
      </trkpt>
      <trkpt lat="44.69495" lon="6.68405">
        <ele>1547.387207</ele>
        <time>2016-08-16T09:13:08Z</time>
      </trkpt>
      <trkpt lat="44.69496" lon="6.6838">
        <ele>1542.179443</ele>
        <time>2016-08-16T09:13:38Z</time>
      </trkpt>
      <trkpt lat="44.69502" lon="6.68356">
        <ele>1540.504639</ele>
        <time>2016-08-16T09:13:59Z</time>
      </trkpt>
      <trkpt lat="44.69497" lon="6.68331">
        <ele>1530.537354</ele>
        <time>2016-08-16T09:14:18Z</time>
      </trkpt>
      <trkpt lat="44.69479" lon="6.68333">
        <ele>1519.16626</ele>
        <time>2016-08-16T09:14:47Z</time>
      </trkpt>
      <trkpt lat="44.69463" lon="6.6832">
        <ele>1507.919678</ele>
        <time>2016-08-16T09:15:24Z</time>
      </trkpt>
      <trkpt lat="44.69452" lon="6.68341">
        <ele>1507.369873</ele>
        <time>2016-08-16T09:15:49Z</time>
      </trkpt>
      <trkpt lat="44.6945" lon="6.68314">
        <ele>1508.067749</ele>
        <time>2016-08-16T09:16:07Z</time>
      </trkpt>
      <trkpt lat="44.69431" lon="6.68316">
        <ele>1511.166382</ele>
        <time>2016-08-16T09:17:38Z</time>
      </trkpt>
      <trkpt lat="44.69419" lon="6.68335">
        <ele>1507.710449</ele>
        <time>2016-08-16T09:18:00Z</time>
      </trkpt>
      <trkpt lat="44.69406" lon="6.68353">
        <ele>1504.442261</ele>
        <time>2016-08-16T09:18:20Z</time>
      </trkpt>
      <trkpt lat="44.69388" lon="6.68367">
        <ele>1505.827515</ele>
        <time>2016-08-16T09:19:48Z</time>
      </trkpt>
      <trkpt lat="44.69376" lon="6.68391">
        <ele>1499.186768</ele>
        <time>2016-08-16T09:19:53Z</time>
      </trkpt>
      <trkpt lat="44.69358" lon="6.68407">
        <ele>1495.582642</ele>
        <time>2016-08-16T09:19:58Z</time>
      </trkpt>
      <trkpt lat="44.69336" lon="6.68417">
        <ele>1495.149048</ele>
        <time>2016-08-16T09:20:03Z</time>
      </trkpt>
      <trkpt lat="44.69316" lon="6.68419">
        <ele>1498.374878</ele>
        <time>2016-08-16T09:20:07Z</time>
      </trkpt>
      <trkpt lat="44.69298" lon="6.68421">
        <ele>1503.502197</ele>
        <time>2016-08-16T09:20:10Z</time>
      </trkpt>
      <trkpt lat="44.69282" lon="6.68437">
        <ele>1501.984985</ele>
        <time>2016-08-16T09:20:14Z</time>
      </trkpt>
      <trkpt lat="44.69266" lon="6.68457">
        <ele>1501.178101</ele>
        <time>2016-08-16T09:20:21Z</time>
      </trkpt>
      <trkpt lat="44.6925" lon="6.68473">
        <ele>1502.247925</ele>
        <time>2016-08-16T09:20:31Z</time>
      </trkpt>
      <trkpt lat="44.69232" lon="6.68484">
        <ele>1505.297852</ele>
        <time>2016-08-16T09:20:39Z</time>
      </trkpt>
      <trkpt lat="44.69213" lon="6.68498">
        <ele>1506.685303</ele>
        <time>2016-08-16T09:20:52Z</time>
      </trkpt>
      <trkpt lat="44.69194" lon="6.68504">
        <ele>1512.184204</ele>
        <time>2016-08-16T09:21:13Z</time>
      </trkpt>
      <trkpt lat="44.69179" lon="6.6852">
        <ele>1512.366333</ele>
        <time>2016-08-16T09:21:26Z</time>
      </trkpt>
      <trkpt lat="44.69162" lon="6.68531">
        <ele>1515.215942</ele>
        <time>2016-08-16T09:21:42Z</time>
      </trkpt>
      <trkpt lat="44.69145" lon="6.6854">
        <ele>1518.812256</ele>
        <time>2016-08-16T09:21:58Z</time>
      </trkpt>
      <trkpt lat="44.69129" lon="6.68557">
        <ele>1519.835571</ele>
        <time>2016-08-16T09:22:19Z</time>
      </trkpt>
      <trkpt lat="44.69114" lon="6.68573">
        <ele>1523.03772</ele>
        <time>2016-08-16T09:22:36Z</time>
      </trkpt>
      <trkpt lat="44.69098" lon="6.68587">
        <ele>1526.599854</ele>
        <time>2016-08-16T09:22:54Z</time>
      </trkpt>
      <trkpt lat="44.69082" lon="6.686">
        <ele>1530.170044</ele>
        <time>2016-08-16T09:23:19Z</time>
      </trkpt>
      <trkpt lat="44.69071" lon="6.68621">
        <ele>1529.080688</ele>
        <time>2016-08-16T09:23:40Z</time>
      </trkpt>
      <trkpt lat="44.69053" lon="6.6863">
        <ele>1536.774536</ele>
        <time>2016-08-16T09:24:07Z</time>
      </trkpt>
      <trkpt lat="44.69035" lon="6.68637">
        <ele>1545.912354</ele>
        <time>2016-08-16T09:24:45Z</time>
      </trkpt>
      <trkpt lat="44.6902" lon="6.68653">
        <ele>1548.361328</ele>
        <time>2016-08-16T09:25:10Z</time>
      </trkpt>
      <trkpt lat="44.69006" lon="6.68672">
        <ele>1549.972412</ele>
        <time>2016-08-16T09:25:33Z</time>
      </trkpt>
      <trkpt lat="44.68993" lon="6.68691">
        <ele>1551.608887</ele>
        <time>2016-08-16T09:25:50Z</time>
      </trkpt>
      <trkpt lat="44.68977" lon="6.68706">
        <ele>1554.978271</ele>
        <time>2016-08-16T09:26:26Z</time>
      </trkpt>
      <trkpt lat="44.68966" lon="6.68726">
        <ele>1554.461182</ele>
        <time>2016-08-16T09:26:49Z</time>
      </trkpt>
      <trkpt lat="44.68951" lon="6.68741">
        <ele>1555.806763</ele>
        <time>2016-08-16T09:27:08Z</time>
      </trkpt>
      <trkpt lat="44.68933" lon="6.68727">
        <ele>1571.696411</ele>
        <time>2016-08-16T09:28:08Z</time>
      </trkpt>
      <trkpt lat="44.68918" lon="6.68743">
        <ele>1573.658691</ele>
        <time>2016-08-16T09:28:20Z</time>
      </trkpt>
      <trkpt lat="44.68901" lon="6.68755">
        <ele>1579.310425</ele>
        <time>2016-08-16T09:28:34Z</time>
      </trkpt>
      <trkpt lat="44.6889" lon="6.68775">
        <ele>1578.455933</ele>
        <time>2016-08-16T09:28:44Z</time>
      </trkpt>
      <trkpt lat="44.68877" lon="6.68794">
        <ele>1577.041748</ele>
        <time>2016-08-16T09:28:59Z</time>
      </trkpt>
      <trkpt lat="44.68859" lon="6.68801">
        <ele>1583.323242</ele>
        <time>2016-08-16T09:29:16Z</time>
      </trkpt>
      <trkpt lat="44.68851" lon="6.68825">
        <ele>1575.082153</ele>
        <time>2016-08-16T09:29:33Z</time>
      </trkpt>
      <trkpt lat="44.68832" lon="6.68829">
        <ele>1578.659058</ele>
        <time>2016-08-16T09:30:01Z</time>
      </trkpt>
      <trkpt lat="44.68819" lon="6.68847">
        <ele>1573.147827</ele>
        <time>2016-08-16T09:30:15Z</time>
      </trkpt>
      <trkpt lat="44.68804" lon="6.68864">
        <ele>1567.178345</ele>
        <time>2016-08-16T09:30:23Z</time>
      </trkpt>
      <trkpt lat="44.68784" lon="6.68867">
        <ele>1568.165039</ele>
        <time>2016-08-16T09:30:34Z</time>
      </trkpt>
      <trkpt lat="44.68766" lon="6.68856">
        <ele>1575.742676</ele>
        <time>2016-08-16T09:30:40Z</time>
      </trkpt>
      <trkpt lat="44.68749" lon="6.68847">
        <ele>1581.846558</ele>
        <time>2016-08-16T09:30:49Z</time>
      </trkpt>
      <trkpt lat="44.6873" lon="6.68845">
        <ele>1584.376709</ele>
        <time>2016-08-16T09:30:59Z</time>
      </trkpt>
      <trkpt lat="44.68714" lon="6.68858">
        <ele>1581.797241</ele>
        <time>2016-08-16T09:31:09Z</time>
      </trkpt>
      <trkpt lat="44.68699" lon="6.68874">
        <ele>1579.796509</ele>
        <time>2016-08-16T09:31:20Z</time>
      </trkpt>
      <trkpt lat="44.68682" lon="6.68884">
        <ele>1581.235474</ele>
        <time>2016-08-16T09:31:30Z</time>
      </trkpt>
      <trkpt lat="44.68664" lon="6.68893">
        <ele>1581.774292</ele>
        <time>2016-08-16T09:31:39Z</time>
      </trkpt>
      <trkpt lat="44.68646" lon="6.68898">
        <ele>1582.661743</ele>
        <time>2016-08-16T09:31:47Z</time>
      </trkpt>
      <trkpt lat="44.68629" lon="6.68906">
        <ele>1582.957153</ele>
        <time>2016-08-16T09:31:52Z</time>
      </trkpt>
      <trkpt lat="44.6861" lon="6.68907">
        <ele>1580.293945</ele>
        <time>2016-08-16T09:32:00Z</time>
      </trkpt>
      <trkpt lat="44.68593" lon="6.689">
        <ele>1578.931519</ele>
        <time>2016-08-16T09:32:11Z</time>
      </trkpt>
      <trkpt lat="44.68585" lon="6.68876">
        <ele>1585.36853</ele>
        <time>2016-08-16T09:32:19Z</time>
      </trkpt>
      <trkpt lat="44.68567" lon="6.68863">
        <ele>1584.505859</ele>
        <time>2016-08-16T09:32:27Z</time>
      </trkpt>
      <trkpt lat="44.68546" lon="6.68858">
        <ele>1579.678101</ele>
        <time>2016-08-16T09:32:33Z</time>
      </trkpt>
      <trkpt lat="44.68526" lon="6.68853">
        <ele>1573.63623</ele>
        <time>2016-08-16T09:32:38Z</time>
      </trkpt>
      <trkpt lat="44.68514" lon="6.6883">
        <ele>1576.280396</ele>
        <time>2016-08-16T09:32:43Z</time>
      </trkpt>
      <trkpt lat="44.68499" lon="6.68807">
        <ele>1578.338501</ele>
        <time>2016-08-16T09:32:48Z</time>
      </trkpt>
      <trkpt lat="44.6848" lon="6.68791">
        <ele>1576.142822</ele>
        <time>2016-08-16T09:32:53Z</time>
      </trkpt>
      <trkpt lat="44.68461" lon="6.68773">
        <ele>1573.249023</ele>
        <time>2016-08-16T09:32:58Z</time>
      </trkpt>
      <trkpt lat="44.68445" lon="6.68758">
        <ele>1569.761475</ele>
        <time>2016-08-16T09:33:02Z</time>
      </trkpt>
      <trkpt lat="44.68428" lon="6.6874">
        <ele>1564.385498</ele>
        <time>2016-08-16T09:33:06Z</time>
      </trkpt>
      <trkpt lat="44.68426" lon="6.68715">
        <ele>1564.897583</ele>
        <time>2016-08-16T09:33:10Z</time>
      </trkpt>
      <trkpt lat="44.68426" lon="6.68685">
        <ele>1566.587158</ele>
        <time>2016-08-16T09:33:15Z</time>
      </trkpt>
      <trkpt lat="44.68419" lon="6.68658">
        <ele>1559.306885</ele>
        <time>2016-08-16T09:33:22Z</time>
      </trkpt>
      <trkpt lat="44.6842" lon="6.68632">
        <ele>1558.227539</ele>
        <time>2016-08-16T09:33:27Z</time>
      </trkpt>
      <trkpt lat="44.68429" lon="6.68605">
        <ele>1561.866943</ele>
        <time>2016-08-16T09:33:31Z</time>
      </trkpt>
      <trkpt lat="44.68435" lon="6.68575">
        <ele>1562.810303</ele>
        <time>2016-08-16T09:33:36Z</time>
      </trkpt>
      <trkpt lat="44.68441" lon="6.68547">
        <ele>1564.973267</ele>
        <time>2016-08-16T09:33:40Z</time>
      </trkpt>
      <trkpt lat="44.68438" lon="6.68521">
        <ele>1561.918945</ele>
        <time>2016-08-16T09:33:43Z</time>
      </trkpt>
      <trkpt lat="44.68432" lon="6.68496">
        <ele>1558.234131</ele>
        <time>2016-08-16T09:33:46Z</time>
      </trkpt>
      <trkpt lat="44.68427" lon="6.6847">
        <ele>1558.577637</ele>
        <time>2016-08-16T09:33:49Z</time>
      </trkpt>
      <trkpt lat="44.68417" lon="6.68448">
        <ele>1556.631348</ele>
        <time>2016-08-16T09:33:52Z</time>
      </trkpt>
      <trkpt lat="44.68401" lon="6.68431">
        <ele>1554.745483</ele>
        <time>2016-08-16T09:33:56Z</time>
      </trkpt>
      <trkpt lat="44.68393" lon="6.68458">
        <ele>1547.715088</ele>
        <time>2016-08-16T09:34:04Z</time>
      </trkpt>
      <trkpt lat="44.68396" lon="6.68483">
        <ele>1544.159546</ele>
        <time>2016-08-16T09:34:09Z</time>
      </trkpt>
      <trkpt lat="44.68397" lon="6.68511">
        <ele>1539.333862</ele>
        <time>2016-08-16T09:34:13Z</time>
      </trkpt>
      <trkpt lat="44.68398" lon="6.68542">
        <ele>1533.937744</ele>
        <time>2016-08-16T09:34:17Z</time>
      </trkpt>
      <trkpt lat="44.68397" lon="6.68579">
        <ele>1532.92688</ele>
        <time>2016-08-16T09:34:23Z</time>
      </trkpt>
      <trkpt lat="44.68383" lon="6.68553">
        <ele>1521.908081</ele>
        <time>2016-08-16T09:34:36Z</time>
      </trkpt>
      <trkpt lat="44.68373" lon="6.68527">
        <ele>1523.212158</ele>
        <time>2016-08-16T09:34:41Z</time>
      </trkpt>
      <trkpt lat="44.68354" lon="6.68518">
        <ele>1520.444824</ele>
        <time>2016-08-16T09:34:46Z</time>
      </trkpt>
      <trkpt lat="44.68334" lon="6.68519">
        <ele>1515.086304</ele>
        <time>2016-08-16T09:34:50Z</time>
      </trkpt>
      <trkpt lat="44.68313" lon="6.6852">
        <ele>1511.180298</ele>
        <time>2016-08-16T09:34:54Z</time>
      </trkpt>
      <trkpt lat="44.68293" lon="6.68516">
        <ele>1509.05603</ele>
        <time>2016-08-16T09:34:59Z</time>
      </trkpt>
      <trkpt lat="44.68276" lon="6.68506">
        <ele>1509.448242</ele>
        <time>2016-08-16T09:35:04Z</time>
      </trkpt>
      <trkpt lat="44.68258" lon="6.68495">
        <ele>1511.201538</ele>
        <time>2016-08-16T09:35:09Z</time>
      </trkpt>
      <trkpt lat="44.68239" lon="6.68492">
        <ele>1510.580811</ele>
        <time>2016-08-16T09:35:13Z</time>
      </trkpt>
      <trkpt lat="44.68215" lon="6.68493">
        <ele>1507.254028</ele>
        <time>2016-08-16T09:35:17Z</time>
      </trkpt>
      <trkpt lat="44.68194" lon="6.685">
        <ele>1502.24707</ele>
        <time>2016-08-16T09:35:21Z</time>
      </trkpt>
      <trkpt lat="44.68176" lon="6.68495">
        <ele>1497.82605</ele>
        <time>2016-08-16T09:35:29Z</time>
      </trkpt>
      <trkpt lat="44.68164" lon="6.68471">
        <ele>1497.633667</ele>
        <time>2016-08-16T09:35:33Z</time>
      </trkpt>
      <trkpt lat="44.68146" lon="6.68455">
        <ele>1488.973755</ele>
        <time>2016-08-16T09:35:38Z</time>
      </trkpt>
      <trkpt lat="44.68138" lon="6.68431">
        <ele>1481.297852</ele>
        <time>2016-08-16T09:35:43Z</time>
      </trkpt>
      <trkpt lat="44.68141" lon="6.68404">
        <ele>1481.207031</ele>
        <time>2016-08-16T09:35:49Z</time>
      </trkpt>
      <trkpt lat="44.68154" lon="6.68385">
        <ele>1486.701294</ele>
        <time>2016-08-16T09:35:54Z</time>
      </trkpt>
      <trkpt lat="44.6816" lon="6.68353">
        <ele>1482.767456</ele>
        <time>2016-08-16T09:35:59Z</time>
      </trkpt>
      <trkpt lat="44.68162" lon="6.68321">
        <ele>1477.306885</ele>
        <time>2016-08-16T09:36:03Z</time>
      </trkpt>
      <trkpt lat="44.68167" lon="6.68289">
        <ele>1474.64917</ele>
        <time>2016-08-16T09:36:07Z</time>
      </trkpt>
      <trkpt lat="44.68173" lon="6.6826">
        <ele>1473.533813</ele>
        <time>2016-08-16T09:36:11Z</time>
      </trkpt>
      <trkpt lat="44.68175" lon="6.6823">
        <ele>1469.249146</ele>
        <time>2016-08-16T09:36:15Z</time>
      </trkpt>
      <trkpt lat="44.68173" lon="6.68197">
        <ele>1464.018677</ele>
        <time>2016-08-16T09:36:19Z</time>
      </trkpt>
      <trkpt lat="44.68174" lon="6.68166">
        <ele>1460.984009</ele>
        <time>2016-08-16T09:36:23Z</time>
      </trkpt>
      <trkpt lat="44.68173" lon="6.6814">
        <ele>1461.261475</ele>
        <time>2016-08-16T09:36:26Z</time>
      </trkpt>
      <trkpt lat="44.68169" lon="6.68114">
        <ele>1460.171021</ele>
        <time>2016-08-16T09:36:30Z</time>
      </trkpt>
      <trkpt lat="44.68163" lon="6.68089">
        <ele>1458.915894</ele>
        <time>2016-08-16T09:36:34Z</time>
      </trkpt>
      <trkpt lat="44.68155" lon="6.68066">
        <ele>1457.802368</ele>
        <time>2016-08-16T09:36:38Z</time>
      </trkpt>
      <trkpt lat="44.68138" lon="6.68041">
        <ele>1453.240234</ele>
        <time>2016-08-16T09:36:42Z</time>
      </trkpt>
      <trkpt lat="44.68117" lon="6.68026">
        <ele>1445.226685</ele>
        <time>2016-08-16T09:36:46Z</time>
      </trkpt>
      <trkpt lat="44.68106" lon="6.68004">
        <ele>1442.139526</ele>
        <time>2016-08-16T09:37:02Z</time>
      </trkpt>
      <trkpt lat="44.68102" lon="6.67978">
        <ele>1445.580322</ele>
        <time>2016-08-16T09:37:07Z</time>
      </trkpt>
      <trkpt lat="44.68084" lon="6.67962">
        <ele>1444.746948</ele>
        <time>2016-08-16T09:37:14Z</time>
      </trkpt>
      <trkpt lat="44.68066" lon="6.67964">
        <ele>1439.171509</ele>
        <time>2016-08-16T09:37:18Z</time>
      </trkpt>
      <trkpt lat="44.68049" lon="6.67954">
        <ele>1437.575195</ele>
        <time>2016-08-16T09:37:22Z</time>
      </trkpt>
      <trkpt lat="44.68032" lon="6.67932">
        <ele>1438.452637</ele>
        <time>2016-08-16T09:37:26Z</time>
      </trkpt>
      <trkpt lat="44.68016" lon="6.67914">
        <ele>1437.203979</ele>
        <time>2016-08-16T09:37:30Z</time>
      </trkpt>
      <trkpt lat="44.68" lon="6.67892">
        <ele>1434.72168</ele>
        <time>2016-08-16T09:37:34Z</time>
      </trkpt>
      <trkpt lat="44.67987" lon="6.67871">
        <ele>1433.400024</ele>
        <time>2016-08-16T09:37:37Z</time>
      </trkpt>
      <trkpt lat="44.67972" lon="6.67849">
        <ele>1429.155884</ele>
        <time>2016-08-16T09:37:40Z</time>
      </trkpt>
      <trkpt lat="44.67956" lon="6.67822">
        <ele>1423.397949</ele>
        <time>2016-08-16T09:37:43Z</time>
      </trkpt>
      <trkpt lat="44.6794" lon="6.67795">
        <ele>1417.973755</ele>
        <time>2016-08-16T09:37:46Z</time>
      </trkpt>
      <trkpt lat="44.67929" lon="6.67768">
        <ele>1415.096069</ele>
        <time>2016-08-16T09:37:49Z</time>
      </trkpt>
      <trkpt lat="44.67919" lon="6.67737">
        <ele>1415.134766</ele>
        <time>2016-08-16T09:37:52Z</time>
      </trkpt>
      <trkpt lat="44.67916" lon="6.67706">
        <ele>1418.43457</ele>
        <time>2016-08-16T09:37:55Z</time>
      </trkpt>
      <trkpt lat="44.67906" lon="6.67679">
        <ele>1419.960449</ele>
        <time>2016-08-16T09:37:58Z</time>
      </trkpt>
      <trkpt lat="44.67893" lon="6.67656">
        <ele>1419.73938</ele>
        <time>2016-08-16T09:38:01Z</time>
      </trkpt>
      <trkpt lat="44.67879" lon="6.67636">
        <ele>1416.682617</ele>
        <time>2016-08-16T09:38:04Z</time>
      </trkpt>
      <trkpt lat="44.67865" lon="6.67616">
        <ele>1416.120239</ele>
        <time>2016-08-16T09:38:07Z</time>
      </trkpt>
      <trkpt lat="44.67853" lon="6.67592">
        <ele>1419.449585</ele>
        <time>2016-08-16T09:38:10Z</time>
      </trkpt>
      <trkpt lat="44.67837" lon="6.67574">
        <ele>1418.5177</ele>
        <time>2016-08-16T09:38:13Z</time>
      </trkpt>
      <trkpt lat="44.67819" lon="6.67564">
        <ele>1413.852905</ele>
        <time>2016-08-16T09:38:17Z</time>
      </trkpt>
      <trkpt lat="44.67798" lon="6.67554">
        <ele>1408.875488</ele>
        <time>2016-08-16T09:38:20Z</time>
      </trkpt>
      <trkpt lat="44.67781" lon="6.67539">
        <ele>1406.50647</ele>
        <time>2016-08-16T09:38:24Z</time>
      </trkpt>
      <trkpt lat="44.67761" lon="6.6752">
        <ele>1402.6427</ele>
        <time>2016-08-16T09:38:28Z</time>
      </trkpt>
      <trkpt lat="44.67742" lon="6.67501">
        <ele>1397.438354</ele>
        <time>2016-08-16T09:38:32Z</time>
      </trkpt>
      <trkpt lat="44.67731" lon="6.67471">
        <ele>1396.572021</ele>
        <time>2016-08-16T09:38:36Z</time>
      </trkpt>
      <trkpt lat="44.67725" lon="6.67448">
        <ele>1397.544189</ele>
        <time>2016-08-16T09:38:39Z</time>
      </trkpt>
      <trkpt lat="44.67713" lon="6.67428">
        <ele>1395.153076</ele>
        <time>2016-08-16T09:38:42Z</time>
      </trkpt>
      <trkpt lat="44.67699" lon="6.67404">
        <ele>1390.268433</ele>
        <time>2016-08-16T09:38:46Z</time>
      </trkpt>
      <trkpt lat="44.67691" lon="6.67376">
        <ele>1389.076782</ele>
        <time>2016-08-16T09:38:50Z</time>
      </trkpt>
      <trkpt lat="44.67696" lon="6.67345">
        <ele>1390.171143</ele>
        <time>2016-08-16T09:38:55Z</time>
      </trkpt>
      <trkpt lat="44.67705" lon="6.67317">
        <ele>1391.388916</ele>
        <time>2016-08-16T09:38:59Z</time>
      </trkpt>
      <trkpt lat="44.67709" lon="6.67287">
        <ele>1390.874268</ele>
        <time>2016-08-16T09:39:03Z</time>
      </trkpt>
      <trkpt lat="44.67714" lon="6.67257">
        <ele>1391.510254</ele>
        <time>2016-08-16T09:39:07Z</time>
      </trkpt>
      <trkpt lat="44.67717" lon="6.67229">
        <ele>1391.943115</ele>
        <time>2016-08-16T09:39:11Z</time>
      </trkpt>
      <trkpt lat="44.67718" lon="6.67198">
        <ele>1392.411621</ele>
        <time>2016-08-16T09:39:16Z</time>
      </trkpt>
      <trkpt lat="44.67721" lon="6.67168">
        <ele>1393.729492</ele>
        <time>2016-08-16T09:39:21Z</time>
      </trkpt>
      <trkpt lat="44.67723" lon="6.67139">
        <ele>1395.275269</ele>
        <time>2016-08-16T09:39:26Z</time>
      </trkpt>
      <trkpt lat="44.67717" lon="6.67112">
        <ele>1394.478638</ele>
        <time>2016-08-16T09:39:31Z</time>
      </trkpt>
      <trkpt lat="44.6771" lon="6.67082">
        <ele>1392.241333</ele>
        <time>2016-08-16T09:39:36Z</time>
      </trkpt>
      <trkpt lat="44.67706" lon="6.67051">
        <ele>1391.524048</ele>
        <time>2016-08-16T09:39:41Z</time>
      </trkpt>
      <trkpt lat="44.67696" lon="6.67023">
        <ele>1390.434204</ele>
        <time>2016-08-16T09:39:46Z</time>
      </trkpt>
      <trkpt lat="44.67687" lon="6.67">
        <ele>1389.004883</ele>
        <time>2016-08-16T09:39:50Z</time>
      </trkpt>
      <trkpt lat="44.67679" lon="6.66977">
        <ele>1387.757202</ele>
        <time>2016-08-16T09:39:54Z</time>
      </trkpt>
      <trkpt lat="44.67663" lon="6.6696">
        <ele>1385.238525</ele>
        <time>2016-08-16T09:39:58Z</time>
      </trkpt>
      <trkpt lat="44.67653" lon="6.66938">
        <ele>1384.264526</ele>
        <time>2016-08-16T09:40:02Z</time>
      </trkpt>
      <trkpt lat="44.67646" lon="6.66913">
        <ele>1383.606567</ele>
        <time>2016-08-16T09:40:05Z</time>
      </trkpt>
      <trkpt lat="44.67637" lon="6.66887">
        <ele>1382.244141</ele>
        <time>2016-08-16T09:40:08Z</time>
      </trkpt>
      <trkpt lat="44.6762" lon="6.66866">
        <ele>1378.816772</ele>
        <time>2016-08-16T09:40:11Z</time>
      </trkpt>
      <trkpt lat="44.67608" lon="6.6684">
        <ele>1376.007935</ele>
        <time>2016-08-16T09:40:14Z</time>
      </trkpt>
      <trkpt lat="44.67602" lon="6.66809">
        <ele>1374.987183</ele>
        <time>2016-08-16T09:40:17Z</time>
      </trkpt>
      <trkpt lat="44.67599" lon="6.66776">
        <ele>1374.180176</ele>
        <time>2016-08-16T09:40:20Z</time>
      </trkpt>
      <trkpt lat="44.67594" lon="6.66743">
        <ele>1372.904053</ele>
        <time>2016-08-16T09:40:23Z</time>
      </trkpt>
      <trkpt lat="44.6759" lon="6.66707">
        <ele>1372.49707</ele>
        <time>2016-08-16T09:40:26Z</time>
      </trkpt>
      <trkpt lat="44.67576" lon="6.66677">
        <ele>1370.227539</ele>
        <time>2016-08-16T09:40:29Z</time>
      </trkpt>
      <trkpt lat="44.6756" lon="6.6665">
        <ele>1367.46106</ele>
        <time>2016-08-16T09:40:32Z</time>
      </trkpt>
      <trkpt lat="44.67549" lon="6.66618">
        <ele>1366.343628</ele>
        <time>2016-08-16T09:40:35Z</time>
      </trkpt>
      <trkpt lat="44.67541" lon="6.66595">
        <ele>1365.415039</ele>
        <time>2016-08-16T09:40:37Z</time>
      </trkpt>
      <trkpt lat="44.67532" lon="6.66559">
        <ele>1362.180176</ele>
        <time>2016-08-16T09:40:40Z</time>
      </trkpt>
      <trkpt lat="44.67525" lon="6.66535">
        <ele>1359.480713</ele>
        <time>2016-08-16T09:40:42Z</time>
      </trkpt>
      <trkpt lat="44.67522" lon="6.66497">
        <ele>1352.445679</ele>
        <time>2016-08-16T09:40:45Z</time>
      </trkpt>
      <trkpt lat="44.67533" lon="6.66475">
        <ele>1353.536987</ele>
        <time>2016-08-16T09:40:47Z</time>
      </trkpt>
      <trkpt lat="44.67547" lon="6.66457">
        <ele>1355.794312</ele>
        <time>2016-08-16T09:40:49Z</time>
      </trkpt>
      <trkpt lat="44.67561" lon="6.66437">
        <ele>1357.065796</ele>
        <time>2016-08-16T09:40:51Z</time>
      </trkpt>
      <trkpt lat="44.6757" lon="6.66414">
        <ele>1356.585571</ele>
        <time>2016-08-16T09:40:53Z</time>
      </trkpt>
      <trkpt lat="44.67572" lon="6.66387">
        <ele>1354.910522</ele>
        <time>2016-08-16T09:40:55Z</time>
      </trkpt>
      <trkpt lat="44.67577" lon="6.66361">
        <ele>1356.185669</ele>
        <time>2016-08-16T09:40:57Z</time>
      </trkpt>
      <trkpt lat="44.67577" lon="6.6633">
        <ele>1353.91748</ele>
        <time>2016-08-16T09:40:59Z</time>
      </trkpt>
      <trkpt lat="44.67577" lon="6.66299">
        <ele>1351.961426</ele>
        <time>2016-08-16T09:41:01Z</time>
      </trkpt>
      <trkpt lat="44.67577" lon="6.66271">
        <ele>1348.451538</ele>
        <time>2016-08-16T09:41:03Z</time>
      </trkpt>
      <trkpt lat="44.67587" lon="6.66242">
        <ele>1350.290527</ele>
        <time>2016-08-16T09:41:07Z</time>
      </trkpt>
      <trkpt lat="44.67602" lon="6.66227">
        <ele>1358.071289</ele>
        <time>2016-08-16T09:41:10Z</time>
      </trkpt>
      <trkpt lat="44.67596" lon="6.66196">
        <ele>1362.458984</ele>
        <time>2016-08-16T09:41:14Z</time>
      </trkpt>
      <trkpt lat="44.67576" lon="6.66178">
        <ele>1357.107788</ele>
        <time>2016-08-16T09:41:18Z</time>
      </trkpt>
      <trkpt lat="44.67556" lon="6.66163">
        <ele>1351.377563</ele>
        <time>2016-08-16T09:41:22Z</time>
      </trkpt>
      <trkpt lat="44.67536" lon="6.66148">
        <ele>1343.366577</ele>
        <time>2016-08-16T09:41:26Z</time>
      </trkpt>
      <trkpt lat="44.67528" lon="6.66123">
        <ele>1345.662476</ele>
        <time>2016-08-16T09:41:29Z</time>
      </trkpt>
      <trkpt lat="44.67525" lon="6.66087">
        <ele>1353.505859</ele>
        <time>2016-08-16T09:41:33Z</time>
      </trkpt>
      <trkpt lat="44.6751" lon="6.66069">
        <ele>1348.688477</ele>
        <time>2016-08-16T09:41:36Z</time>
      </trkpt>
      <trkpt lat="44.67494" lon="6.66053">
        <ele>1340.909546</ele>
        <time>2016-08-16T09:41:39Z</time>
      </trkpt>
      <trkpt lat="44.67484" lon="6.66029">
        <ele>1341.990967</ele>
        <time>2016-08-16T09:41:42Z</time>
      </trkpt>
      <trkpt lat="44.67479" lon="6.66003">
        <ele>1337.845459</ele>
        <time>2016-08-16T09:41:45Z</time>
      </trkpt>
      <trkpt lat="44.67479" lon="6.65976">
        <ele>1335.988647</ele>
        <time>2016-08-16T09:41:48Z</time>
      </trkpt>
      <trkpt lat="44.67488" lon="6.65952">
        <ele>1343.544434</ele>
        <time>2016-08-16T09:41:51Z</time>
      </trkpt>
      <trkpt lat="44.67485" lon="6.65927">
        <ele>1340.540039</ele>
        <time>2016-08-16T09:41:54Z</time>
      </trkpt>
      <trkpt lat="44.67478" lon="6.65902">
        <ele>1336.432739</ele>
        <time>2016-08-16T09:41:57Z</time>
      </trkpt>
      <trkpt lat="44.67487" lon="6.65877">
        <ele>1335.02832</ele>
        <time>2016-08-16T09:42:01Z</time>
      </trkpt>
      <trkpt lat="44.67505" lon="6.65873">
        <ele>1346.713379</ele>
        <time>2016-08-16T09:42:04Z</time>
      </trkpt>
      <trkpt lat="44.67523" lon="6.65861">
        <ele>1356.217651</ele>
        <time>2016-08-16T09:42:07Z</time>
      </trkpt>
      <trkpt lat="44.67531" lon="6.65837">
        <ele>1355.671997</ele>
        <time>2016-08-16T09:42:10Z</time>
      </trkpt>
      <trkpt lat="44.67543" lon="6.65811">
        <ele>1351.291992</ele>
        <time>2016-08-16T09:42:15Z</time>
      </trkpt>
      <trkpt lat="44.67543" lon="6.65782">
        <ele>1338.957886</ele>
        <time>2016-08-16T09:42:19Z</time>
      </trkpt>
      <trkpt lat="44.67541" lon="6.6575">
        <ele>1324.010132</ele>
        <time>2016-08-16T09:42:23Z</time>
      </trkpt>
      <trkpt lat="44.67556" lon="6.65731">
        <ele>1322.726196</ele>
        <time>2016-08-16T09:42:28Z</time>
      </trkpt>
      <trkpt lat="44.67576" lon="6.65729">
        <ele>1329.153564</ele>
        <time>2016-08-16T09:42:32Z</time>
      </trkpt>
      <trkpt lat="44.67599" lon="6.65722">
        <ele>1332.531982</ele>
        <time>2016-08-16T09:42:36Z</time>
      </trkpt>
      <trkpt lat="44.67615" lon="6.65705">
        <ele>1328.79126</ele>
        <time>2016-08-16T09:42:39Z</time>
      </trkpt>
      <trkpt lat="44.67631" lon="6.65689">
        <ele>1325.629517</ele>
        <time>2016-08-16T09:42:42Z</time>
      </trkpt>
      <trkpt lat="44.67642" lon="6.65663">
        <ele>1314.685059</ele>
        <time>2016-08-16T09:42:45Z</time>
      </trkpt>
      <trkpt lat="44.67661" lon="6.65653">
        <ele>1315.729126</ele>
        <time>2016-08-16T09:42:48Z</time>
      </trkpt>
      <trkpt lat="44.67682" lon="6.65658">
        <ele>1330.258667</ele>
        <time>2016-08-16T09:42:51Z</time>
      </trkpt>
      <trkpt lat="44.67703" lon="6.65655">
        <ele>1341.039673</ele>
        <time>2016-08-16T09:42:54Z</time>
      </trkpt>
      <trkpt lat="44.67726" lon="6.65641">
        <ele>1347.149292</ele>
        <time>2016-08-16T09:42:57Z</time>
      </trkpt>
      <trkpt lat="44.67734" lon="6.65618">
        <ele>1340.838257</ele>
        <time>2016-08-16T09:42:59Z</time>
      </trkpt>
      <trkpt lat="44.67734" lon="6.65584">
        <ele>1321.818115</ele>
        <time>2016-08-16T09:43:02Z</time>
      </trkpt>
      <trkpt lat="44.67735" lon="6.65555">
        <ele>1308.883057</ele>
        <time>2016-08-16T09:43:05Z</time>
      </trkpt>
      <trkpt lat="44.67746" lon="6.65534">
        <ele>1304.863525</ele>
        <time>2016-08-16T09:43:08Z</time>
      </trkpt>
      <trkpt lat="44.67766" lon="6.65517">
        <ele>1302.353394</ele>
        <time>2016-08-16T09:43:11Z</time>
      </trkpt>
      <trkpt lat="44.67786" lon="6.65513">
        <ele>1303.740723</ele>
        <time>2016-08-16T09:43:14Z</time>
      </trkpt>
      <trkpt lat="44.67807" lon="6.65514">
        <ele>1309.867432</ele>
        <time>2016-08-16T09:43:17Z</time>
      </trkpt>
      <trkpt lat="44.67832" lon="6.6551">
        <ele>1311.369019</ele>
        <time>2016-08-16T09:43:20Z</time>
      </trkpt>
      <trkpt lat="44.67857" lon="6.65499">
        <ele>1304.083374</ele>
        <time>2016-08-16T09:43:23Z</time>
      </trkpt>
      <trkpt lat="44.67876" lon="6.65494">
        <ele>1303.006104</ele>
        <time>2016-08-16T09:43:25Z</time>
      </trkpt>
      <trkpt lat="44.67894" lon="6.65486">
        <ele>1301.050537</ele>
        <time>2016-08-16T09:43:27Z</time>
      </trkpt>
      <trkpt lat="44.67912" lon="6.65477">
        <ele>1299.105103</ele>
        <time>2016-08-16T09:43:29Z</time>
      </trkpt>
      <trkpt lat="44.67931" lon="6.65465">
        <ele>1295.72229</ele>
        <time>2016-08-16T09:43:31Z</time>
      </trkpt>
      <trkpt lat="44.67951" lon="6.65458">
        <ele>1297.378052</ele>
        <time>2016-08-16T09:43:33Z</time>
      </trkpt>
      <trkpt lat="44.67974" lon="6.65439">
        <ele>1305.477783</ele>
        <time>2016-08-16T09:43:36Z</time>
      </trkpt>
      <trkpt lat="44.67978" lon="6.65404">
        <ele>1290.956909</ele>
        <time>2016-08-16T09:43:39Z</time>
      </trkpt>
      <trkpt lat="44.67985" lon="6.65375">
        <ele>1280.496826</ele>
        <time>2016-08-16T09:43:42Z</time>
      </trkpt>
      <trkpt lat="44.67999" lon="6.65357">
        <ele>1277.941162</ele>
        <time>2016-08-16T09:43:45Z</time>
      </trkpt>
      <trkpt lat="44.68018" lon="6.65349">
        <ele>1279.525269</ele>
        <time>2016-08-16T09:43:48Z</time>
      </trkpt>
      <trkpt lat="44.68037" lon="6.65336">
        <ele>1276.499512</ele>
        <time>2016-08-16T09:43:51Z</time>
      </trkpt>
      <trkpt lat="44.68057" lon="6.65323">
        <ele>1272.840088</ele>
        <time>2016-08-16T09:43:54Z</time>
      </trkpt>
      <trkpt lat="44.68081" lon="6.65311">
        <ele>1270.842285</ele>
        <time>2016-08-16T09:43:57Z</time>
      </trkpt>
      <trkpt lat="44.68103" lon="6.65298">
        <ele>1268.626709</ele>
        <time>2016-08-16T09:44:00Z</time>
      </trkpt>
      <trkpt lat="44.68122" lon="6.65281">
        <ele>1263.166626</ele>
        <time>2016-08-16T09:44:04Z</time>
      </trkpt>
      <trkpt lat="44.68142" lon="6.65272">
        <ele>1262.939453</ele>
        <time>2016-08-16T09:44:07Z</time>
      </trkpt>
      <trkpt lat="44.68167" lon="6.65256">
        <ele>1262.177612</ele>
        <time>2016-08-16T09:44:10Z</time>
      </trkpt>
      <trkpt lat="44.6818" lon="6.65235">
        <ele>1259.487549</ele>
        <time>2016-08-16T09:44:12Z</time>
      </trkpt>
      <trkpt lat="44.68193" lon="6.65204">
        <ele>1254.442139</ele>
        <time>2016-08-16T09:44:15Z</time>
      </trkpt>
      <trkpt lat="44.6821" lon="6.65181">
        <ele>1261.960815</ele>
        <time>2016-08-16T09:44:18Z</time>
      </trkpt>
      <trkpt lat="44.68212" lon="6.65152">
        <ele>1264.665405</ele>
        <time>2016-08-16T09:44:21Z</time>
      </trkpt>
      <trkpt lat="44.68197" lon="6.65136">
        <ele>1255.113892</ele>
        <time>2016-08-16T09:44:23Z</time>
      </trkpt>
      <trkpt lat="44.68178" lon="6.6511">
        <ele>1241.242676</ele>
        <time>2016-08-16T09:44:26Z</time>
      </trkpt>
      <trkpt lat="44.68172" lon="6.65083">
        <ele>1238.298706</ele>
        <time>2016-08-16T09:44:29Z</time>
      </trkpt>
      <trkpt lat="44.68186" lon="6.65066">
        <ele>1249.288086</ele>
        <time>2016-08-16T09:44:32Z</time>
      </trkpt>
      <trkpt lat="44.68204" lon="6.65048">
        <ele>1250.468384</ele>
        <time>2016-08-16T09:44:35Z</time>
      </trkpt>
      <trkpt lat="44.68223" lon="6.65027">
        <ele>1248.095703</ele>
        <time>2016-08-16T09:44:38Z</time>
      </trkpt>
      <trkpt lat="44.68244" lon="6.65004">
        <ele>1243.163086</ele>
        <time>2016-08-16T09:44:41Z</time>
      </trkpt>
      <trkpt lat="44.68259" lon="6.64985">
        <ele>1240.495728</ele>
        <time>2016-08-16T09:44:43Z</time>
      </trkpt>
      <trkpt lat="44.68274" lon="6.64967">
        <ele>1238.542358</ele>
        <time>2016-08-16T09:44:45Z</time>
      </trkpt>
      <trkpt lat="44.68291" lon="6.6495">
        <ele>1237.200195</ele>
        <time>2016-08-16T09:44:47Z</time>
      </trkpt>
      <trkpt lat="44.68305" lon="6.64926">
        <ele>1232.26416</ele>
        <time>2016-08-16T09:44:49Z</time>
      </trkpt>
      <trkpt lat="44.6832" lon="6.64901">
        <ele>1227.84375</ele>
        <time>2016-08-16T09:44:51Z</time>
      </trkpt>
      <trkpt lat="44.68335" lon="6.64882">
        <ele>1228.306763</ele>
        <time>2016-08-16T09:44:53Z</time>
      </trkpt>
      <trkpt lat="44.68344" lon="6.64856">
        <ele>1229.182495</ele>
        <time>2016-08-16T09:44:56Z</time>
      </trkpt>
      <trkpt lat="44.68332" lon="6.64836">
        <ele>1219.553467</ele>
        <time>2016-08-16T09:44:59Z</time>
      </trkpt>
      <trkpt lat="44.68341" lon="6.64805">
        <ele>1222.649902</ele>
        <time>2016-08-16T09:45:03Z</time>
      </trkpt>
      <trkpt lat="44.68351" lon="6.64776">
        <ele>1228.52832</ele>
        <time>2016-08-16T09:45:06Z</time>
      </trkpt>
      <trkpt lat="44.68352" lon="6.64741">
        <ele>1227.78125</ele>
        <time>2016-08-16T09:45:09Z</time>
      </trkpt>
      <trkpt lat="44.68349" lon="6.64716">
        <ele>1224.01416</ele>
        <time>2016-08-16T09:45:11Z</time>
      </trkpt>
      <trkpt lat="44.68344" lon="6.64689">
        <ele>1221.917358</ele>
        <time>2016-08-16T09:45:13Z</time>
      </trkpt>
      <trkpt lat="44.68332" lon="6.64666">
        <ele>1216.920776</ele>
        <time>2016-08-16T09:45:15Z</time>
      </trkpt>
      <trkpt lat="44.68319" lon="6.64642">
        <ele>1210.620483</ele>
        <time>2016-08-16T09:45:17Z</time>
      </trkpt>
      <trkpt lat="44.68309" lon="6.64614">
        <ele>1208.686035</ele>
        <time>2016-08-16T09:45:19Z</time>
      </trkpt>
      <trkpt lat="44.68301" lon="6.64581">
        <ele>1208.886963</ele>
        <time>2016-08-16T09:45:21Z</time>
      </trkpt>
      <trkpt lat="44.6829" lon="6.6455">
        <ele>1205.921509</ele>
        <time>2016-08-16T09:45:23Z</time>
      </trkpt>
      <trkpt lat="44.6828" lon="6.64519">
        <ele>1204.786255</ele>
        <time>2016-08-16T09:45:25Z</time>
      </trkpt>
      <trkpt lat="44.68269" lon="6.64496">
        <ele>1200.81958</ele>
        <time>2016-08-16T09:45:27Z</time>
      </trkpt>
      <trkpt lat="44.68251" lon="6.64481">
        <ele>1194.154785</ele>
        <time>2016-08-16T09:45:29Z</time>
      </trkpt>
      <trkpt lat="44.68231" lon="6.64468">
        <ele>1188.638184</ele>
        <time>2016-08-16T09:45:31Z</time>
      </trkpt>
      <trkpt lat="44.68213" lon="6.64444">
        <ele>1187.895264</ele>
        <time>2016-08-16T09:45:33Z</time>
      </trkpt>
      <trkpt lat="44.68196" lon="6.6442">
        <ele>1187.344727</ele>
        <time>2016-08-16T09:45:35Z</time>
      </trkpt>
      <trkpt lat="44.68175" lon="6.64402">
        <ele>1182.709839</ele>
        <time>2016-08-16T09:45:37Z</time>
      </trkpt>
      <trkpt lat="44.68157" lon="6.64391">
        <ele>1176.411133</ele>
        <time>2016-08-16T09:45:39Z</time>
      </trkpt>
      <trkpt lat="44.6814" lon="6.64363">
        <ele>1172.397827</ele>
        <time>2016-08-16T09:45:42Z</time>
      </trkpt>
      <trkpt lat="44.68131" lon="6.64336">
        <ele>1170.617676</ele>
        <time>2016-08-16T09:45:44Z</time>
      </trkpt>
      <trkpt lat="44.68122" lon="6.64307">
        <ele>1169.616577</ele>
        <time>2016-08-16T09:45:46Z</time>
      </trkpt>
      <trkpt lat="44.68114" lon="6.64276">
        <ele>1167.951904</ele>
        <time>2016-08-16T09:45:48Z</time>
      </trkpt>
      <trkpt lat="44.68107" lon="6.64248">
        <ele>1167.474609</ele>
        <time>2016-08-16T09:45:50Z</time>
      </trkpt>
      <trkpt lat="44.681" lon="6.6422">
        <ele>1166.152832</ele>
        <time>2016-08-16T09:45:53Z</time>
      </trkpt>
      <trkpt lat="44.68081" lon="6.64229">
        <ele>1160.221558</ele>
        <time>2016-08-16T09:45:57Z</time>
      </trkpt>
      <trkpt lat="44.68087" lon="6.64253">
        <ele>1160.058228</ele>
        <time>2016-08-16T09:46:00Z</time>
      </trkpt>
      <trkpt lat="44.68092" lon="6.64286">
        <ele>1158.561279</ele>
        <time>2016-08-16T09:46:03Z</time>
      </trkpt>
      <trkpt lat="44.68091" lon="6.64324">
        <ele>1154.295166</ele>
        <time>2016-08-16T09:46:06Z</time>
      </trkpt>
      <trkpt lat="44.68094" lon="6.64354">
        <ele>1151.840698</ele>
        <time>2016-08-16T09:46:08Z</time>
      </trkpt>
      <trkpt lat="44.68098" lon="6.64387">
        <ele>1149.378784</ele>
        <time>2016-08-16T09:46:10Z</time>
      </trkpt>
      <trkpt lat="44.68105" lon="6.64415">
        <ele>1148.456543</ele>
        <time>2016-08-16T09:46:12Z</time>
      </trkpt>
      <trkpt lat="44.68085" lon="6.64404">
        <ele>1140.568848</ele>
        <time>2016-08-16T09:46:20Z</time>
      </trkpt>
      <trkpt lat="44.68077" lon="6.64371">
        <ele>1141.791504</ele>
        <time>2016-08-16T09:46:23Z</time>
      </trkpt>
      <trkpt lat="44.6807" lon="6.64348">
        <ele>1141.314575</ele>
        <time>2016-08-16T09:46:25Z</time>
      </trkpt>
      <trkpt lat="44.68061" lon="6.64324">
        <ele>1140.424316</ele>
        <time>2016-08-16T09:46:27Z</time>
      </trkpt>
      <trkpt lat="44.68051" lon="6.64301">
        <ele>1138.774048</ele>
        <time>2016-08-16T09:46:29Z</time>
      </trkpt>
      <trkpt lat="44.68038" lon="6.6428">
        <ele>1137.38208</ele>
        <time>2016-08-16T09:46:31Z</time>
      </trkpt>
      <trkpt lat="44.68022" lon="6.64263">
        <ele>1135.388184</ele>
        <time>2016-08-16T09:46:33Z</time>
      </trkpt>
      <trkpt lat="44.68003" lon="6.64253">
        <ele>1131.145752</ele>
        <time>2016-08-16T09:46:35Z</time>
      </trkpt>
      <trkpt lat="44.67983" lon="6.6424">
        <ele>1127.193848</ele>
        <time>2016-08-16T09:46:37Z</time>
      </trkpt>
      <trkpt lat="44.67965" lon="6.64226">
        <ele>1123.709717</ele>
        <time>2016-08-16T09:46:39Z</time>
      </trkpt>
      <trkpt lat="44.67951" lon="6.64193">
        <ele>1121.185669</ele>
        <time>2016-08-16T09:46:42Z</time>
      </trkpt>
      <trkpt lat="44.67946" lon="6.64166">
        <ele>1120.684326</ele>
        <time>2016-08-16T09:46:44Z</time>
      </trkpt>
      <trkpt lat="44.67935" lon="6.64141">
        <ele>1117.526733</ele>
        <time>2016-08-16T09:46:46Z</time>
      </trkpt>
      <trkpt lat="44.67924" lon="6.64117">
        <ele>1114.028687</ele>
        <time>2016-08-16T09:46:49Z</time>
      </trkpt>
      <trkpt lat="44.67914" lon="6.64093">
        <ele>1110.888672</ele>
        <time>2016-08-16T09:46:54Z</time>
      </trkpt>
      <trkpt lat="44.67916" lon="6.64066">
        <ele>1111.535278</ele>
        <time>2016-08-16T09:46:58Z</time>
      </trkpt>
      <trkpt lat="44.67927" lon="6.64042">
        <ele>1115.120117</ele>
        <time>2016-08-16T09:47:02Z</time>
      </trkpt>
      <trkpt lat="44.67939" lon="6.64017">
        <ele>1117.372681</ele>
        <time>2016-08-16T09:47:06Z</time>
      </trkpt>
      <trkpt lat="44.67924" lon="6.63994">
        <ele>1111.639038</ele>
        <time>2016-08-16T09:47:11Z</time>
      </trkpt>
      <trkpt lat="44.67905" lon="6.63995">
        <ele>1106.522095</ele>
        <time>2016-08-16T09:47:14Z</time>
      </trkpt>
      <trkpt lat="44.67886" lon="6.63976">
        <ele>1101.046631</ele>
        <time>2016-08-16T09:47:17Z</time>
      </trkpt>
      <trkpt lat="44.67875" lon="6.63955">
        <ele>1096.738281</ele>
        <time>2016-08-16T09:47:19Z</time>
      </trkpt>
      <trkpt lat="44.67866" lon="6.63931">
        <ele>1093.468384</ele>
        <time>2016-08-16T09:47:21Z</time>
      </trkpt>
      <trkpt lat="44.67862" lon="6.63904">
        <ele>1091.106812</ele>
        <time>2016-08-16T09:47:23Z</time>
      </trkpt>
      <trkpt lat="44.67862" lon="6.63875">
        <ele>1087.968506</ele>
        <time>2016-08-16T09:47:25Z</time>
      </trkpt>
      <trkpt lat="44.67872" lon="6.63844">
        <ele>1084.860229</ele>
        <time>2016-08-16T09:47:28Z</time>
      </trkpt>
      <trkpt lat="44.6787" lon="6.63816">
        <ele>1082.746216</ele>
        <time>2016-08-16T09:47:32Z</time>
      </trkpt>
      <trkpt lat="44.67846" lon="6.63817">
        <ele>1081.74353</ele>
        <time>2016-08-16T09:47:35Z</time>
      </trkpt>
      <trkpt lat="44.6782" lon="6.63829">
        <ele>1080.168213</ele>
        <time>2016-08-16T09:47:38Z</time>
      </trkpt>
      <trkpt lat="44.67802" lon="6.63838">
        <ele>1078.090088</ele>
        <time>2016-08-16T09:47:40Z</time>
      </trkpt>
      <trkpt lat="44.67783" lon="6.63848">
        <ele>1075.199829</ele>
        <time>2016-08-16T09:47:42Z</time>
      </trkpt>
      <trkpt lat="44.67766" lon="6.6386">
        <ele>1071.402466</ele>
        <time>2016-08-16T09:47:44Z</time>
      </trkpt>
      <trkpt lat="44.67755" lon="6.63882">
        <ele>1069.520386</ele>
        <time>2016-08-16T09:47:46Z</time>
      </trkpt>
      <trkpt lat="44.67753" lon="6.63907">
        <ele>1069.565308</ele>
        <time>2016-08-16T09:47:48Z</time>
      </trkpt>
      <trkpt lat="44.67754" lon="6.63933">
        <ele>1069.319336</ele>
        <time>2016-08-16T09:47:50Z</time>
      </trkpt>
      <trkpt lat="44.67761" lon="6.63965">
        <ele>1070.795776</ele>
        <time>2016-08-16T09:47:53Z</time>
      </trkpt>
      <trkpt lat="44.67743" lon="6.63947">
        <ele>1065.287354</ele>
        <time>2016-08-16T09:48:01Z</time>
      </trkpt>
      <trkpt lat="44.67737" lon="6.6392">
        <ele>1063.502808</ele>
        <time>2016-08-16T09:48:04Z</time>
      </trkpt>
      <trkpt lat="44.67732" lon="6.63889">
        <ele>1061.492554</ele>
        <time>2016-08-16T09:48:07Z</time>
      </trkpt>
      <trkpt lat="44.67721" lon="6.63854">
        <ele>1056.224609</ele>
        <time>2016-08-16T09:48:10Z</time>
      </trkpt>
      <trkpt lat="44.67714" lon="6.63829">
        <ele>1053.852539</ele>
        <time>2016-08-16T09:48:12Z</time>
      </trkpt>
      <trkpt lat="44.67709" lon="6.63804">
        <ele>1053.100708</ele>
        <time>2016-08-16T09:48:14Z</time>
      </trkpt>
      <trkpt lat="44.67713" lon="6.63777">
        <ele>1055.0271</ele>
        <time>2016-08-16T09:48:16Z</time>
      </trkpt>
      <trkpt lat="44.67719" lon="6.63752">
        <ele>1056.161133</ele>
        <time>2016-08-16T09:48:18Z</time>
      </trkpt>
      <trkpt lat="44.67725" lon="6.63725">
        <ele>1056.289307</ele>
        <time>2016-08-16T09:48:20Z</time>
      </trkpt>
      <trkpt lat="44.67732" lon="6.63697">
        <ele>1055.81189</ele>
        <time>2016-08-16T09:48:22Z</time>
      </trkpt>
      <trkpt lat="44.67743" lon="6.63667">
        <ele>1054.256592</ele>
        <time>2016-08-16T09:48:24Z</time>
      </trkpt>
      <trkpt lat="44.67754" lon="6.63639">
        <ele>1052.399048</ele>
        <time>2016-08-16T09:48:26Z</time>
      </trkpt>
      <trkpt lat="44.67764" lon="6.63614">
        <ele>1049.674438</ele>
        <time>2016-08-16T09:48:28Z</time>
      </trkpt>
      <trkpt lat="44.6777" lon="6.6359">
        <ele>1046.766602</ele>
        <time>2016-08-16T09:48:30Z</time>
      </trkpt>
      <trkpt lat="44.67758" lon="6.63556">
        <ele>1042.618896</ele>
        <time>2016-08-16T09:48:33Z</time>
      </trkpt>
      <trkpt lat="44.67743" lon="6.63539">
        <ele>1040.041626</ele>
        <time>2016-08-16T09:48:35Z</time>
      </trkpt>
      <trkpt lat="44.67726" lon="6.63523">
        <ele>1037.832642</ele>
        <time>2016-08-16T09:48:37Z</time>
      </trkpt>
      <trkpt lat="44.67709" lon="6.63504">
        <ele>1035.87439</ele>
        <time>2016-08-16T09:48:39Z</time>
      </trkpt>
      <trkpt lat="44.67694" lon="6.63484">
        <ele>1033.910889</ele>
        <time>2016-08-16T09:48:41Z</time>
      </trkpt>
      <trkpt lat="44.67682" lon="6.63464">
        <ele>1032.604736</ele>
        <time>2016-08-16T09:48:43Z</time>
      </trkpt>
      <trkpt lat="44.67663" lon="6.63438">
        <ele>1030.768066</ele>
        <time>2016-08-16T09:48:46Z</time>
      </trkpt>
      <trkpt lat="44.67646" lon="6.6342">
        <ele>1029.228149</ele>
        <time>2016-08-16T09:48:49Z</time>
      </trkpt>
      <trkpt lat="44.67623" lon="6.6341">
        <ele>1028.643921</ele>
        <time>2016-08-16T09:48:52Z</time>
      </trkpt>
      <trkpt lat="44.67601" lon="6.63398">
        <ele>1027.495361</ele>
        <time>2016-08-16T09:48:55Z</time>
      </trkpt>
      <trkpt lat="44.67582" lon="6.63381">
        <ele>1027.766724</ele>
        <time>2016-08-16T09:48:58Z</time>
      </trkpt>
      <trkpt lat="44.67565" lon="6.63363">
        <ele>1024.87854</ele>
        <time>2016-08-16T09:49:02Z</time>
      </trkpt>
      <trkpt lat="44.67546" lon="6.63344">
        <ele>1023.995178</ele>
        <time>2016-08-16T09:49:06Z</time>
      </trkpt>
      <trkpt lat="44.67531" lon="6.63328">
        <ele>1024.481567</ele>
        <time>2016-08-16T09:49:09Z</time>
      </trkpt>
      <trkpt lat="44.67513" lon="6.63309">
        <ele>1024.487793</ele>
        <time>2016-08-16T09:49:12Z</time>
      </trkpt>
      <trkpt lat="44.67495" lon="6.6329">
        <ele>1023.245972</ele>
        <time>2016-08-16T09:49:15Z</time>
      </trkpt>
      <trkpt lat="44.67477" lon="6.6327">
        <ele>1022.512573</ele>
        <time>2016-08-16T09:49:18Z</time>
      </trkpt>
      <trkpt lat="44.67457" lon="6.63254">
        <ele>1023.443054</ele>
        <time>2016-08-16T09:49:21Z</time>
      </trkpt>
      <trkpt lat="44.67439" lon="6.63244">
        <ele>1022.82196</ele>
        <time>2016-08-16T09:49:24Z</time>
      </trkpt>
      <trkpt lat="44.67422" lon="6.63232">
        <ele>1021.459167</ele>
        <time>2016-08-16T09:49:27Z</time>
      </trkpt>
      <trkpt lat="44.67405" lon="6.63211">
        <ele>1021.669006</ele>
        <time>2016-08-16T09:49:31Z</time>
      </trkpt>
      <trkpt lat="44.67396" lon="6.63187">
        <ele>1024.027832</ele>
        <time>2016-08-16T09:49:34Z</time>
      </trkpt>
      <trkpt lat="44.67389" lon="6.63164">
        <ele>1025.11731</ele>
        <time>2016-08-16T09:49:37Z</time>
      </trkpt>
      <trkpt lat="44.67386" lon="6.63131">
        <ele>1024.348877</ele>
        <time>2016-08-16T09:49:41Z</time>
      </trkpt>
      <trkpt lat="44.67389" lon="6.63104">
        <ele>1023.05658</ele>
        <time>2016-08-16T09:49:44Z</time>
      </trkpt>
      <trkpt lat="44.67388" lon="6.63075">
        <ele>1020.839294</ele>
        <time>2016-08-16T09:49:47Z</time>
      </trkpt>
      <trkpt lat="44.67387" lon="6.63041">
        <ele>1018.622314</ele>
        <time>2016-08-16T09:49:50Z</time>
      </trkpt>
      <trkpt lat="44.67386" lon="6.63008">
        <ele>1017.562073</ele>
        <time>2016-08-16T09:49:53Z</time>
      </trkpt>
      <trkpt lat="44.67383" lon="6.62971">
        <ele>1016.686829</ele>
        <time>2016-08-16T09:49:56Z</time>
      </trkpt>
      <trkpt lat="44.67381" lon="6.62944">
        <ele>1016.194214</ele>
        <time>2016-08-16T09:49:58Z</time>
      </trkpt>
      <trkpt lat="44.67379" lon="6.62917">
        <ele>1015.612427</ele>
        <time>2016-08-16T09:50:00Z</time>
      </trkpt>
      <trkpt lat="44.67379" lon="6.62888">
        <ele>1014.744385</ele>
        <time>2016-08-16T09:50:02Z</time>
      </trkpt>
      <trkpt lat="44.67384" lon="6.62859">
        <ele>1013.711182</ele>
        <time>2016-08-16T09:50:04Z</time>
      </trkpt>
      <trkpt lat="44.6739" lon="6.62832">
        <ele>1012.902771</ele>
        <time>2016-08-16T09:50:06Z</time>
      </trkpt>
      <trkpt lat="44.674" lon="6.62807">
        <ele>1011.83136</ele>
        <time>2016-08-16T09:50:08Z</time>
      </trkpt>
      <trkpt lat="44.67414" lon="6.62787">
        <ele>1010.353577</ele>
        <time>2016-08-16T09:50:10Z</time>
      </trkpt>
      <trkpt lat="44.6743" lon="6.62768">
        <ele>1008.752563</ele>
        <time>2016-08-16T09:50:12Z</time>
      </trkpt>
      <trkpt lat="44.67445" lon="6.62751">
        <ele>1006.914368</ele>
        <time>2016-08-16T09:50:14Z</time>
      </trkpt>
      <trkpt lat="44.67462" lon="6.62736">
        <ele>1004.559692</ele>
        <time>2016-08-16T09:50:16Z</time>
      </trkpt>
      <trkpt lat="44.67481" lon="6.62732">
        <ele>1002.222473</ele>
        <time>2016-08-16T09:50:18Z</time>
      </trkpt>
      <trkpt lat="44.675" lon="6.62739">
        <ele>1001.077759</ele>
        <time>2016-08-16T09:50:20Z</time>
      </trkpt>
      <trkpt lat="44.67518" lon="6.62748">
        <ele>1000.07782</ele>
        <time>2016-08-16T09:50:22Z</time>
      </trkpt>
      <trkpt lat="44.67537" lon="6.62757">
        <ele>997.523499</ele>
        <time>2016-08-16T09:50:24Z</time>
      </trkpt>
      <trkpt lat="44.67556" lon="6.62769">
        <ele>995.543518</ele>
        <time>2016-08-16T09:50:26Z</time>
      </trkpt>
      <trkpt lat="44.67574" lon="6.62784">
        <ele>994.113892</ele>
        <time>2016-08-16T09:50:28Z</time>
      </trkpt>
      <trkpt lat="44.67589" lon="6.62805">
        <ele>993.842712</ele>
        <time>2016-08-16T09:50:30Z</time>
      </trkpt>
      <trkpt lat="44.67603" lon="6.62829">
        <ele>994.205994</ele>
        <time>2016-08-16T09:50:32Z</time>
      </trkpt>
      <trkpt lat="44.6762" lon="6.62846">
        <ele>993.711243</ele>
        <time>2016-08-16T09:50:34Z</time>
      </trkpt>
      <trkpt lat="44.67642" lon="6.62855">
        <ele>991.875671</ele>
        <time>2016-08-16T09:50:36Z</time>
      </trkpt>
      <trkpt lat="44.67663" lon="6.62865">
        <ele>989.963989</ele>
        <time>2016-08-16T09:50:38Z</time>
      </trkpt>
      <trkpt lat="44.67682" lon="6.62878">
        <ele>988.784363</ele>
        <time>2016-08-16T09:50:40Z</time>
      </trkpt>
      <trkpt lat="44.67702" lon="6.62892">
        <ele>986.675842</ele>
        <time>2016-08-16T09:50:42Z</time>
      </trkpt>
      <trkpt lat="44.67722" lon="6.62908">
        <ele>983.637634</ele>
        <time>2016-08-16T09:50:44Z</time>
      </trkpt>
      <trkpt lat="44.67742" lon="6.62924">
        <ele>980.499695</ele>
        <time>2016-08-16T09:50:46Z</time>
      </trkpt>
      <trkpt lat="44.67762" lon="6.62937">
        <ele>975.743347</ele>
        <time>2016-08-16T09:50:48Z</time>
      </trkpt>
      <trkpt lat="44.67785" lon="6.62946">
        <ele>970.044678</ele>
        <time>2016-08-16T09:50:51Z</time>
      </trkpt>
      <trkpt lat="44.67797" lon="6.62921">
        <ele>965.888245</ele>
        <time>2016-08-16T09:50:55Z</time>
      </trkpt>
      <trkpt lat="44.67781" lon="6.62898">
        <ele>966.710205</ele>
        <time>2016-08-16T09:50:58Z</time>
      </trkpt>
      <trkpt lat="44.6776" lon="6.62874">
        <ele>970.017761</ele>
        <time>2016-08-16T09:51:01Z</time>
      </trkpt>
      <trkpt lat="44.67747" lon="6.62854">
        <ele>971.054077</ele>
        <time>2016-08-16T09:51:03Z</time>
      </trkpt>
      <trkpt lat="44.67735" lon="6.62832">
        <ele>970.814148</ele>
        <time>2016-08-16T09:51:05Z</time>
      </trkpt>
      <trkpt lat="44.67725" lon="6.62806">
        <ele>968.963684</ele>
        <time>2016-08-16T09:51:07Z</time>
      </trkpt>
      <trkpt lat="44.67711" lon="6.62781">
        <ele>967.417053</ele>
        <time>2016-08-16T09:51:09Z</time>
      </trkpt>
      <trkpt lat="44.67697" lon="6.62756">
        <ele>965.869995</ele>
        <time>2016-08-16T09:51:11Z</time>
      </trkpt>
      <trkpt lat="44.67683" lon="6.6273">
        <ele>963.983948</ele>
        <time>2016-08-16T09:51:13Z</time>
      </trkpt>
      <trkpt lat="44.67673" lon="6.62701">
        <ele>961.164795</ele>
        <time>2016-08-16T09:51:15Z</time>
      </trkpt>
      <trkpt lat="44.67663" lon="6.62674">
        <ele>959.214844</ele>
        <time>2016-08-16T09:51:17Z</time>
      </trkpt>
      <trkpt lat="44.6765" lon="6.6265">
        <ele>958.434692</ele>
        <time>2016-08-16T09:51:19Z</time>
      </trkpt>
      <trkpt lat="44.67639" lon="6.62627">
        <ele>957.274109</ele>
        <time>2016-08-16T09:51:21Z</time>
      </trkpt>
      <trkpt lat="44.67633" lon="6.62603">
        <ele>955.827759</ele>
        <time>2016-08-16T09:51:23Z</time>
      </trkpt>
      <trkpt lat="44.67634" lon="6.62573">
        <ele>952.812256</ele>
        <time>2016-08-16T09:51:26Z</time>
      </trkpt>
      <trkpt lat="44.67632" lon="6.62545">
        <ele>950.524597</ele>
        <time>2016-08-16T09:51:31Z</time>
      </trkpt>
      <trkpt lat="44.67628" lon="6.6252">
        <ele>949.101013</ele>
        <time>2016-08-16T09:51:38Z</time>
      </trkpt>
      <trkpt lat="44.67621" lon="6.62494">
        <ele>947.73822</ele>
        <time>2016-08-16T09:51:44Z</time>
      </trkpt>
      <trkpt lat="44.67614" lon="6.62467">
        <ele>945.197205</ele>
        <time>2016-08-16T09:51:49Z</time>
      </trkpt>
      <trkpt lat="44.67603" lon="6.62447">
        <ele>943.568115</ele>
        <time>2016-08-16T09:51:53Z</time>
      </trkpt>
      <trkpt lat="44.67586" lon="6.62433">
        <ele>943.170654</ele>
        <time>2016-08-16T09:51:57Z</time>
      </trkpt>
      <trkpt lat="44.67568" lon="6.62419">
        <ele>942.116455</ele>
        <time>2016-08-16T09:52:01Z</time>
      </trkpt>
      <trkpt lat="44.67547" lon="6.62403">
        <ele>940.942932</ele>
        <time>2016-08-16T09:52:05Z</time>
      </trkpt>
      <trkpt lat="44.67527" lon="6.62387">
        <ele>940.327148</ele>
        <time>2016-08-16T09:52:09Z</time>
      </trkpt>
      <trkpt lat="44.67505" lon="6.62372">
        <ele>940.905884</ele>
        <time>2016-08-16T09:52:13Z</time>
      </trkpt>
      <trkpt lat="44.67488" lon="6.62359">
        <ele>941.009216</ele>
        <time>2016-08-16T09:52:16Z</time>
      </trkpt>
      <trkpt lat="44.67473" lon="6.62344">
        <ele>940.453308</ele>
        <time>2016-08-16T09:52:19Z</time>
      </trkpt>
      <trkpt lat="44.67456" lon="6.62321">
        <ele>938.137573</ele>
        <time>2016-08-16T09:52:22Z</time>
      </trkpt>
      <trkpt lat="44.67441" lon="6.62303">
        <ele>936.222473</ele>
        <time>2016-08-16T09:52:25Z</time>
      </trkpt>
      <trkpt lat="44.67424" lon="6.62287">
        <ele>935.039063</ele>
        <time>2016-08-16T09:52:28Z</time>
      </trkpt>
      <trkpt lat="44.67406" lon="6.62272">
        <ele>934.072327</ele>
        <time>2016-08-16T09:52:31Z</time>
      </trkpt>
      <trkpt lat="44.6739" lon="6.62261">
        <ele>933.307983</ele>
        <time>2016-08-16T09:52:34Z</time>
      </trkpt>
      <trkpt lat="44.67408" lon="6.62256">
        <ele>929.857361</ele>
        <time>2016-08-16T09:52:45Z</time>
      </trkpt>
      <trkpt lat="44.67403" lon="6.62225">
        <ele>922.911926</ele>
        <time>2016-08-16T09:52:50Z</time>
      </trkpt>
      <trkpt lat="44.6739" lon="6.62202">
        <ele>919.873901</ele>
        <time>2016-08-16T09:52:53Z</time>
      </trkpt>
      <trkpt lat="44.67372" lon="6.62184">
        <ele>918.152039</ele>
        <time>2016-08-16T09:52:56Z</time>
      </trkpt>
      <trkpt lat="44.6735" lon="6.62172">
        <ele>917.799622</ele>
        <time>2016-08-16T09:52:59Z</time>
      </trkpt>
      <trkpt lat="44.67331" lon="6.62163">
        <ele>917.78595</ele>
        <time>2016-08-16T09:53:02Z</time>
      </trkpt>
      <trkpt lat="44.67319" lon="6.62145">
        <ele>915.719421</ele>
        <time>2016-08-16T09:53:05Z</time>
      </trkpt>
      <trkpt lat="44.67308" lon="6.62121">
        <ele>912.529907</ele>
        <time>2016-08-16T09:53:09Z</time>
      </trkpt>
      <trkpt lat="44.67299" lon="6.62099">
        <ele>909.268188</ele>
        <time>2016-08-16T09:54:21Z</time>
      </trkpt>
      <trkpt lat="44.67288" lon="6.62076">
        <ele>906.707214</ele>
        <time>2016-08-16T09:54:28Z</time>
      </trkpt>
      <trkpt lat="44.67272" lon="6.62064">
        <ele>905.957581</ele>
        <time>2016-08-16T09:54:33Z</time>
      </trkpt>
      <trkpt lat="44.67256" lon="6.62052">
        <ele>905.171997</ele>
        <time>2016-08-16T09:54:37Z</time>
      </trkpt>
      <trkpt lat="44.67239" lon="6.62038">
        <ele>903.761047</ele>
        <time>2016-08-16T09:54:41Z</time>
      </trkpt>
      <trkpt lat="44.6722" lon="6.62026">
        <ele>903.062866</ele>
        <time>2016-08-16T09:54:45Z</time>
      </trkpt>
      <trkpt lat="44.67201" lon="6.62015">
        <ele>904.082153</ele>
        <time>2016-08-16T09:54:50Z</time>
      </trkpt>
      <trkpt lat="44.67184" lon="6.62004">
        <ele>904.471741</ele>
        <time>2016-08-16T09:54:57Z</time>
      </trkpt>
      <trkpt lat="44.67167" lon="6.61992">
        <ele>905.111145</ele>
        <time>2016-08-16T09:55:05Z</time>
      </trkpt>
      <trkpt lat="44.67151" lon="6.61975">
        <ele>904.199707</ele>
        <time>2016-08-16T09:55:11Z</time>
      </trkpt>
      <trkpt lat="44.67133" lon="6.61961">
        <ele>905.256226</ele>
        <time>2016-08-16T09:55:17Z</time>
      </trkpt>
      <trkpt lat="44.67115" lon="6.6195">
        <ele>908.351379</ele>
        <time>2016-08-16T09:55:22Z</time>
      </trkpt>
      <trkpt lat="44.67099" lon="6.61932">
        <ele>908.613342</ele>
        <time>2016-08-16T09:55:26Z</time>
      </trkpt>
      <trkpt lat="44.67082" lon="6.61923">
        <ele>907.498718</ele>
        <time>2016-08-16T09:55:30Z</time>
      </trkpt>
      <trkpt lat="44.67063" lon="6.61913">
        <ele>905.749939</ele>
        <time>2016-08-16T09:55:35Z</time>
      </trkpt>
      <trkpt lat="44.67043" lon="6.61912">
        <ele>906.27301</ele>
        <time>2016-08-16T09:55:40Z</time>
      </trkpt>
      <trkpt lat="44.67023" lon="6.61905">
        <ele>904.907104</ele>
        <time>2016-08-16T09:55:45Z</time>
      </trkpt>
      <trkpt lat="44.67005" lon="6.61893">
        <ele>901.758057</ele>
        <time>2016-08-16T09:55:50Z</time>
      </trkpt>
      <trkpt lat="44.66986" lon="6.61886">
        <ele>900.058228</ele>
        <time>2016-08-16T09:55:55Z</time>
      </trkpt>
      <trkpt lat="44.66968" lon="6.61888">
        <ele>901.042603</ele>
        <time>2016-08-16T09:55:59Z</time>
      </trkpt>
      <trkpt lat="44.66948" lon="6.61892">
        <ele>902.387573</ele>
        <time>2016-08-16T09:56:04Z</time>
      </trkpt>
      <trkpt lat="44.66926" lon="6.61893">
        <ele>902.619385</ele>
        <time>2016-08-16T09:56:09Z</time>
      </trkpt>
      <trkpt lat="44.66906" lon="6.61896">
        <ele>902.726685</ele>
        <time>2016-08-16T09:56:14Z</time>
      </trkpt>
      <trkpt lat="44.66886" lon="6.61888">
        <ele>900.794189</ele>
        <time>2016-08-16T09:56:21Z</time>
      </trkpt>
      <trkpt lat="44.66863" lon="6.61893">
        <ele>900.713806</ele>
        <time>2016-08-16T09:56:26Z</time>
      </trkpt>
      <trkpt lat="44.66843" lon="6.61898">
        <ele>900.165833</ele>
        <time>2016-08-16T09:56:30Z</time>
      </trkpt>
      <trkpt lat="44.66825" lon="6.61904">
        <ele>899.47937</ele>
        <time>2016-08-16T09:56:34Z</time>
      </trkpt>
      <trkpt lat="44.66801" lon="6.61912">
        <ele>899.267578</ele>
        <time>2016-08-16T09:56:39Z</time>
      </trkpt>
      <trkpt lat="44.66778" lon="6.6192">
        <ele>899</ele>
        <time>2016-08-16T09:56:44Z</time>
      </trkpt>
      <trkpt lat="44.66759" lon="6.61924">
        <ele>899</ele>
        <time>2016-08-16T09:56:48Z</time>
      </trkpt>
      <trkpt lat="44.66738" lon="6.61927">
        <ele>899.020264</ele>
        <time>2016-08-16T09:56:52Z</time>
      </trkpt>
      <trkpt lat="44.66718" lon="6.61928">
        <ele>899.479675</ele>
        <time>2016-08-16T09:56:56Z</time>
      </trkpt>
      <trkpt lat="44.66698" lon="6.61934">
        <ele>900.110046</ele>
        <time>2016-08-16T09:57:00Z</time>
      </trkpt>
      <trkpt lat="44.66679" lon="6.61945">
        <ele>900.495117</ele>
        <time>2016-08-16T09:57:04Z</time>
      </trkpt>
      <trkpt lat="44.66659" lon="6.61956">
        <ele>899.891846</ele>
        <time>2016-08-16T09:57:08Z</time>
      </trkpt>
      <trkpt lat="44.6664" lon="6.61967">
        <ele>898.9646</ele>
        <time>2016-08-16T09:57:12Z</time>
      </trkpt>
      <trkpt lat="44.66621" lon="6.61981">
        <ele>899.068481</ele>
        <time>2016-08-16T09:57:16Z</time>
      </trkpt>
      <trkpt lat="44.66599" lon="6.61992">
        <ele>900.114014</ele>
        <time>2016-08-16T09:57:20Z</time>
      </trkpt>
      <trkpt lat="44.6658" lon="6.62004">
        <ele>899.977905</ele>
        <time>2016-08-16T09:57:24Z</time>
      </trkpt>
      <trkpt lat="44.66563" lon="6.62023">
        <ele>899.091919</ele>
        <time>2016-08-16T09:57:28Z</time>
      </trkpt>
      <trkpt lat="44.66546" lon="6.62041">
        <ele>897.727356</ele>
        <time>2016-08-16T09:57:32Z</time>
      </trkpt>
      <trkpt lat="44.66531" lon="6.62059">
        <ele>897.406433</ele>
        <time>2016-08-16T09:57:36Z</time>
      </trkpt>
      <trkpt lat="44.66516" lon="6.62074">
        <ele>895.80957</ele>
        <time>2016-08-16T09:57:40Z</time>
      </trkpt>
      <trkpt lat="44.66498" lon="6.62093">
        <ele>893.730286</ele>
        <time>2016-08-16T09:57:45Z</time>
      </trkpt>
      <trkpt lat="44.66481" lon="6.62112">
        <ele>893.348633</ele>
        <time>2016-08-16T09:57:50Z</time>
      </trkpt>
      <trkpt lat="44.66467" lon="6.62137">
        <ele>892.302124</ele>
        <time>2016-08-16T09:57:55Z</time>
      </trkpt>
      <trkpt lat="44.66457" lon="6.62164">
        <ele>891.496277</ele>
        <time>2016-08-16T09:58:00Z</time>
      </trkpt>
      <trkpt lat="44.66447" lon="6.62194">
        <ele>893.470154</ele>
        <time>2016-08-16T09:58:05Z</time>
      </trkpt>
      <trkpt lat="44.66437" lon="6.62222">
        <ele>894.680359</ele>
        <time>2016-08-16T09:58:09Z</time>
      </trkpt>
      <trkpt lat="44.66426" lon="6.62251">
        <ele>897.311951</ele>
        <time>2016-08-16T09:58:14Z</time>
      </trkpt>
      <trkpt lat="44.66417" lon="6.62277">
        <ele>898.680725</ele>
        <time>2016-08-16T09:58:19Z</time>
      </trkpt>
      <trkpt lat="44.66411" lon="6.62304">
        <ele>902.719177</ele>
        <time>2016-08-16T09:58:24Z</time>
      </trkpt>
      <trkpt lat="44.66402" lon="6.62328">
        <ele>905.531555</ele>
        <time>2016-08-16T09:58:28Z</time>
      </trkpt>
      <trkpt lat="44.66394" lon="6.62351">
        <ele>907.536011</ele>
        <time>2016-08-16T09:58:32Z</time>
      </trkpt>
      <trkpt lat="44.66387" lon="6.62379">
        <ele>909.55835</ele>
        <time>2016-08-16T09:58:37Z</time>
      </trkpt>
      <trkpt lat="44.66383" lon="6.62406">
        <ele>911.332764</ele>
        <time>2016-08-16T09:58:41Z</time>
      </trkpt>
      <trkpt lat="44.66384" lon="6.62433">
        <ele>909.3479</ele>
        <time>2016-08-16T09:58:46Z</time>
      </trkpt>
      <trkpt lat="44.66392" lon="6.6246">
        <ele>909.663025</ele>
        <time>2016-08-16T09:58:52Z</time>
      </trkpt>
      <trkpt lat="44.6641" lon="6.62478">
        <ele>916.940063</ele>
        <time>2016-08-16T09:58:57Z</time>
      </trkpt>
      <trkpt lat="44.66413" lon="6.62503">
        <ele>911.491943</ele>
        <time>2016-08-16T09:59:04Z</time>
      </trkpt>
      <trkpt lat="44.66403" lon="6.62528">
        <ele>898.381104</ele>
        <time>2016-08-16T09:59:09Z</time>
      </trkpt>
      <trkpt lat="44.66395" lon="6.62554">
        <ele>897.910461</ele>
        <time>2016-08-16T09:59:15Z</time>
      </trkpt>
      <trkpt lat="44.66386" lon="6.62581">
        <ele>900.449951</ele>
        <time>2016-08-16T09:59:21Z</time>
      </trkpt>
      <trkpt lat="44.66375" lon="6.62606">
        <ele>903.393311</ele>
        <time>2016-08-16T09:59:27Z</time>
      </trkpt>
      <trkpt lat="44.66365" lon="6.62631">
        <ele>906.669739</ele>
        <time>2016-08-16T09:59:32Z</time>
      </trkpt>
      <trkpt lat="44.66353" lon="6.62654">
        <ele>909.773621</ele>
        <time>2016-08-16T09:59:37Z</time>
      </trkpt>
      <trkpt lat="44.66339" lon="6.62672">
        <ele>912.938232</ele>
        <time>2016-08-16T09:59:42Z</time>
      </trkpt>
      <trkpt lat="44.66322" lon="6.62683">
        <ele>914.433105</ele>
        <time>2016-08-16T09:59:48Z</time>
      </trkpt>
      <trkpt lat="44.66303" lon="6.62691">
        <ele>915.336548</ele>
        <time>2016-08-16T09:59:54Z</time>
      </trkpt>
      <trkpt lat="44.66285" lon="6.62698">
        <ele>915.839661</ele>
        <time>2016-08-16T09:59:59Z</time>
      </trkpt>
      <trkpt lat="44.66267" lon="6.62705">
        <ele>915.914246</ele>
        <time>2016-08-16T10:00:05Z</time>
      </trkpt>
      <trkpt lat="44.66249" lon="6.62713">
        <ele>916.293091</ele>
        <time>2016-08-16T10:00:10Z</time>
      </trkpt>
      <trkpt lat="44.66231" lon="6.62722">
        <ele>917.534607</ele>
        <time>2016-08-16T10:00:16Z</time>
      </trkpt>
      <trkpt lat="44.66213" lon="6.62737">
        <ele>918.919983</ele>
        <time>2016-08-16T10:00:22Z</time>
      </trkpt>
      <trkpt lat="44.66195" lon="6.62754">
        <ele>920.374939</ele>
        <time>2016-08-16T10:00:28Z</time>
      </trkpt>
      <trkpt lat="44.66179" lon="6.62768">
        <ele>920.634094</ele>
        <time>2016-08-16T10:00:33Z</time>
      </trkpt>
      <trkpt lat="44.66164" lon="6.62783">
        <ele>921.627808</ele>
        <time>2016-08-16T10:00:38Z</time>
      </trkpt>
      <trkpt lat="44.66149" lon="6.628">
        <ele>923.108337</ele>
        <time>2016-08-16T10:00:45Z</time>
      </trkpt>
      <trkpt lat="44.66133" lon="6.62814">
        <ele>923.468506</ele>
        <time>2016-08-16T10:00:50Z</time>
      </trkpt>
      <trkpt lat="44.66117" lon="6.62826">
        <ele>923.019836</ele>
        <time>2016-08-16T10:00:56Z</time>
      </trkpt>
      <trkpt lat="44.66098" lon="6.62835">
        <ele>922.807129</ele>
        <time>2016-08-16T10:01:02Z</time>
      </trkpt>
      <trkpt lat="44.6608" lon="6.62841">
        <ele>922.22644</ele>
        <time>2016-08-16T10:01:08Z</time>
      </trkpt>
      <trkpt lat="44.6606" lon="6.62838">
        <ele>920.946777</ele>
        <time>2016-08-16T10:01:15Z</time>
      </trkpt>
      <trkpt lat="44.66042" lon="6.62829">
        <ele>919.42157</ele>
        <time>2016-08-16T10:01:22Z</time>
      </trkpt>
      <trkpt lat="44.66029" lon="6.62848">
        <ele>920.434998</ele>
        <time>2016-08-16T10:01:52Z</time>
      </trkpt>
    </trkseg>
  </trk>
</gpx>